Time,TemperatureF,DewpointF,PressureIn,WindDirection,WindDirectionDegrees,WindSpeedMPH,WindSpeedGustMPH,Humidity,HourlyPrecipIn,Conditions,Clouds,dailyrainin,SoftwareType,DateUTC
2013-07-24 00:01:00,59.3,53.5,29.95,NW,304,1.0,2.0,81,0.00,,,0.00,Wunderground v.1.13,2013-07-24 05:01:00,
2013-07-24 00:03:00,59.1,53.6,29.94,NW,304,1.0,1.0,82,0.00,,,0.00,Wunderground v.1.13,2013-07-24 05:03:00,
2013-07-24 00:06:00,59.0,53.5,29.94,NW,304,0.0,1.0,82,0.00,,,0.00,Wunderground v.1.13,2013-07-24 05:06:00,
2013-07-24 00:09:00,58.8,53.3,29.94,NW,304,0.0,2.0,82,0.00,,,0.00,Wunderground v.1.13,2013-07-24 05:09:00,
2013-07-24 00:10:00,58.8,53.3,29.94,NW,304,1.0,2.0,82,0.00,,,0.00,Wunderground v.1.13,2013-07-24 05:10:00,
2013-07-24 00:11:00,58.8,53.3,29.95,NW,304,1.0,2.0,82,0.00,,,0.00,Wunderground v.1.13,2013-07-24 05:11:00,
2013-07-24 00:12:00,58.8,53.3,29.94,NW,304,1.0,1.0,82,0.00,,,0.00,Wunderground v.1.13,2013-07-24 05:12:00,
2013-07-24 00:17:00,58.7,53.9,29.95,NW,315,1.0,1.0,84,0.00,,,0.00,Wunderground v.1.13,2013-07-24 05:17:00,
2013-07-24 00:18:00,58.8,54.0,29.95,NW,315,1.0,1.0,84,0.00,,,0.00,Wunderground v.1.13,2013-07-24 05:18:00,
2013-07-24 00:21:00,58.8,54.3,29.95,NW,314,1.0,2.0,85,0.00,,,0.00,Wunderground v.1.13,2013-07-24 05:21:00,
2013-07-24 00:23:00,58.9,54.4,29.95,NW,314,0.0,1.0,85,0.00,,,0.00,Wunderground v.1.13,2013-07-24 05:23:00,
2013-07-24 00:28:00,58.9,54.4,29.95,NW,314,0.0,1.0,85,0.00,,,0.00,Wunderground v.1.13,2013-07-24 05:28:00,
2013-07-24 00:29:00,58.8,54.3,29.95,NW,314,0.0,1.0,85,0.00,,,0.00,Wunderground v.1.13,2013-07-24 05:29:00,
2013-07-24 00:30:00,58.8,54.0,29.95,NW,314,0.0,1.0,84,0.00,,,0.00,Wunderground v.1.13,2013-07-24 05:30:00,
2013-07-24 00:35:00,58.4,53.6,29.95,NW,314,1.0,1.0,84,0.00,,,0.00,Wunderground v.1.13,2013-07-24 05:35:00,
2013-07-24 00:36:00,58.4,53.6,29.95,NW,314,1.0,1.0,84,0.00,,,0.00,Wunderground v.1.13,2013-07-24 05:36:00,
2013-07-24 00:37:00,58.3,53.5,29.95,NW,314,1.0,1.0,84,0.00,,,0.00,Wunderground v.1.13,2013-07-24 05:37:00,
2013-07-24 00:41:00,58.3,53.5,29.95,NW,314,0.0,0.0,84,0.00,,,0.00,Wunderground v.1.13,2013-07-24 05:41:00,
2013-07-24 00:42:00,58.3,53.5,29.95,NW,314,0.0,0.0,84,0.00,,,0.00,Wunderground v.1.13,2013-07-24 05:42:00,
2013-07-24 00:43:00,58.3,53.5,29.95,NW,314,0.0,0.0,84,0.00,,,0.00,Wunderground v.1.13,2013-07-24 05:43:00,
2013-07-24 00:45:00,58.3,53.5,29.95,NW,314,0.0,0.0,84,0.00,,,0.00,Wunderground v.1.13,2013-07-24 05:45:00,
2013-07-24 00:48:00,58.4,53.9,29.95,NW,314,0.0,0.0,85,0.00,,,0.00,Wunderground v.1.13,2013-07-24 05:48:00,
2013-07-24 00:49:00,58.4,54.2,29.95,NW,314,0.0,0.0,86,0.00,,,0.00,Wunderground v.1.13,2013-07-24 05:49:00,
2013-07-24 00:50:00,58.5,54.3,29.95,NW,314,0.0,0.0,86,0.00,,,0.00,Wunderground v.1.13,2013-07-24 05:50:00,
2013-07-24 00:51:00,58.6,54.4,29.95,NW,314,0.0,0.0,86,0.00,,,0.00,Wunderground v.1.13,2013-07-24 05:51:00,
2013-07-24 00:55:00,58.9,54.7,29.95,NW,314,0.0,0.0,86,0.00,,,0.00,Wunderground v.1.13,2013-07-24 05:55:00,
2013-07-24 00:57:00,59.0,54.8,29.95,NW,314,0.0,0.0,86,0.00,,,0.00,Wunderground v.1.13,2013-07-24 05:57:00,
2013-07-24 00:58:00,59.0,54.8,29.95,NW,314,0.0,0.0,86,0.00,,,0.00,Wunderground v.1.13,2013-07-24 05:58:00,
2013-07-24 00:59:00,59.1,54.9,29.95,NW,314,0.0,0.0,86,0.00,,,0.00,Wunderground v.1.13,2013-07-24 05:59:00,
2013-07-24 01:01:00,59.1,54.9,29.95,NW,314,0.0,0.0,86,0.00,,,0.00,Wunderground v.1.13,2013-07-24 06:01:00,
2013-07-24 01:02:00,59.1,54.6,29.95,NW,314,0.0,0.0,85,0.00,,,0.00,Wunderground v.1.13,2013-07-24 06:02:00,
2013-07-24 01:05:00,59.1,54.9,29.96,NW,314,0.0,0.0,86,0.00,,,0.00,Wunderground v.1.13,2013-07-24 06:05:00,
2013-07-24 01:06:00,59.1,54.9,29.96,NW,314,0.0,0.0,86,0.00,,,0.00,Wunderground v.1.13,2013-07-24 06:06:00,
2013-07-24 01:07:00,59.1,54.9,29.96,NW,314,0.0,0.0,86,0.00,,,0.00,Wunderground v.1.13,2013-07-24 06:07:00,
2013-07-24 01:08:00,59.1,54.9,29.95,NW,314,0.0,0.0,86,0.00,,,0.00,Wunderground v.1.13,2013-07-24 06:08:00,
2013-07-24 01:09:00,59.2,55.0,29.95,NW,314,0.0,0.0,86,0.00,,,0.00,Wunderground v.1.13,2013-07-24 06:09:00,
2013-07-24 01:12:00,59.3,55.1,29.96,NW,314,0.0,0.0,86,0.00,,,0.00,Wunderground v.1.13,2013-07-24 06:12:00,
2013-07-24 01:13:00,59.3,55.1,29.96,NW,314,0.0,0.0,86,0.00,,,0.00,Wunderground v.1.13,2013-07-24 06:13:00,
2013-07-24 01:15:00,59.4,55.5,29.96,NW,314,0.0,0.0,87,0.00,,,0.00,Wunderground v.1.13,2013-07-24 06:15:00,
2013-07-24 01:16:00,59.4,55.5,29.95,NW,314,0.0,0.0,87,0.00,,,0.00,Wunderground v.1.13,2013-07-24 06:16:00,
2013-07-24 01:20:00,59.4,55.5,29.96,NW,314,0.0,0.0,87,0.00,,,0.00,Wunderground v.1.13,2013-07-24 06:20:00,
2013-07-24 01:21:00,59.4,55.5,29.96,NW,314,0.0,0.0,87,0.00,,,0.00,Wunderground v.1.13,2013-07-24 06:21:00,
2013-07-24 01:22:00,59.4,55.5,29.96,NW,314,0.0,0.0,87,0.00,,,0.00,Wunderground v.1.13,2013-07-24 06:22:00,
2013-07-24 01:23:00,59.4,55.2,29.96,NW,314,0.0,0.0,86,0.00,,,0.00,Wunderground v.1.13,2013-07-24 06:23:00,
2013-07-24 01:24:00,59.4,55.2,29.96,NW,314,0.0,2.0,86,0.00,,,0.00,Wunderground v.1.13,2013-07-24 06:24:00,
2013-07-24 01:26:00,59.2,55.0,29.96,NW,314,0.0,2.0,86,0.00,,,0.00,Wunderground v.1.13,2013-07-24 06:26:00,
2013-07-24 01:28:00,59.0,54.8,29.96,NW,314,0.0,0.0,86,0.00,,,0.00,Wunderground v.1.13,2013-07-24 06:28:00,
2013-07-24 01:29:00,58.8,54.3,29.96,NW,314,0.0,0.0,85,0.00,,,0.00,Wunderground v.1.13,2013-07-24 06:29:00,
2013-07-24 01:32:00,58.6,54.4,29.96,NW,314,0.0,0.0,86,0.00,,,0.00,Wunderground v.1.13,2013-07-24 06:32:00,
2013-07-24 01:33:00,58.6,54.4,29.96,NW,314,0.0,0.0,86,0.00,,,0.00,Wunderground v.1.13,2013-07-24 06:33:00,
2013-07-24 01:35:00,58.5,54.3,29.96,NW,314,0.0,0.0,86,0.00,,,0.00,Wunderground v.1.13,2013-07-24 06:35:00,
2013-07-24 01:37:00,58.4,54.2,29.96,NW,314,0.0,0.0,86,0.00,,,0.00,Wunderground v.1.13,2013-07-24 06:37:00,
2013-07-24 01:38:00,58.4,54.2,29.96,NW,314,0.0,0.0,86,0.00,,,0.00,Wunderground v.1.13,2013-07-24 06:38:00,
2013-07-24 01:40:00,58.3,54.1,29.96,NW,314,0.0,0.0,86,0.00,,,0.00,Wunderground v.1.13,2013-07-24 06:40:00,
2013-07-24 01:42:00,58.1,53.9,29.96,NW,314,0.0,0.0,86,0.00,,,0.00,Wunderground v.1.13,2013-07-24 06:42:00,
2013-07-24 01:43:00,58.1,53.9,29.96,NW,314,0.0,0.0,86,0.00,,,0.00,Wunderground v.1.13,2013-07-24 06:43:00,
2013-07-24 01:45:00,58.0,53.8,29.96,NW,314,0.0,0.0,86,0.00,,,0.00,Wunderground v.1.13,2013-07-24 06:45:00,
2013-07-24 01:49:00,58.0,54.2,29.96,NNE,15,0.0,3.0,87,0.00,,,0.00,Wunderground v.1.13,2013-07-24 06:49:00,
2013-07-24 01:50:00,58.1,54.2,29.96,NNE,16,0.0,3.0,87,0.00,,,0.00,Wunderground v.1.13,2013-07-24 06:50:00,
2013-07-24 01:51:00,58.1,54.2,29.96,NNE,15,0.0,3.0,87,0.00,,,0.00,Wunderground v.1.13,2013-07-24 06:51:00,
2013-07-24 01:53:00,58.1,54.2,29.96,NNE,15,0.0,0.0,87,0.00,,,0.00,Wunderground v.1.13,2013-07-24 06:53:00,
2013-07-24 01:55:00,58.1,54.2,29.96,NNE,15,0.0,0.0,87,0.00,,,0.00,Wunderground v.1.13,2013-07-24 06:55:00,
2013-07-24 01:56:00,58.1,54.2,29.97,NNE,16,0.0,0.0,87,0.00,,,0.00,Wunderground v.1.13,2013-07-24 06:56:00,
2013-07-24 01:59:00,58.1,54.2,29.97,NW,317,0.0,2.0,87,0.00,,,0.00,Wunderground v.1.13,2013-07-24 06:59:00,
2013-07-24 02:00:00,58.1,54.2,29.96,NW,317,0.0,2.0,87,0.00,,,0.00,Wunderground v.1.13,2013-07-24 07:00:00,
2013-07-24 02:02:00,58.0,54.2,29.96,NW,317,1.0,1.0,87,0.00,,,0.00,Wunderground v.1.13,2013-07-24 07:02:00,
2013-07-24 02:04:00,57.9,54.1,29.96,NW,317,1.0,1.0,87,0.00,,,0.00,Wunderground v.1.13,2013-07-24 07:04:00,
2013-07-24 02:07:00,57.6,53.8,29.96,NW,317,1.0,1.0,87,0.00,,,0.00,Wunderground v.1.13,2013-07-24 07:07:00,
2013-07-24 02:08:00,57.5,53.7,29.96,NW,317,1.0,1.0,87,0.00,,,0.00,Wunderground v.1.13,2013-07-24 07:08:00,
2013-07-24 02:09:00,57.5,53.7,29.96,NW,317,1.0,1.0,87,0.00,,,0.00,Wunderground v.1.13,2013-07-24 07:09:00,
2013-07-24 02:10:00,57.4,53.6,29.96,NW,317,1.0,1.0,87,0.00,,,0.00,Wunderground v.1.13,2013-07-24 07:10:00,
2013-07-24 02:11:00,57.3,53.5,29.96,NW,317,0.0,1.0,87,0.00,,,0.00,Wunderground v.1.13,2013-07-24 07:11:00,
2013-07-24 02:16:00,57.0,53.2,29.96,NW,317,0.0,0.0,87,0.00,,,0.00,Wunderground v.1.13,2013-07-24 07:16:00,
2013-07-24 02:17:00,56.9,53.1,29.96,NW,317,0.0,0.0,87,0.00,,,0.00,Wunderground v.1.13,2013-07-24 07:17:00,
2013-07-24 02:20:00,56.8,53.0,29.95,NW,317,0.0,0.0,87,0.00,,,0.00,Wunderground v.1.13,2013-07-24 07:20:00,
2013-07-24 02:21:00,56.8,53.0,29.95,NW,317,0.0,0.0,87,0.00,,,0.00,Wunderground v.1.13,2013-07-24 07:21:00,
2013-07-24 02:23:00,56.7,52.9,29.96,NW,317,0.0,0.0,87,0.00,,,0.00,Wunderground v.1.13,2013-07-24 07:23:00,
2013-07-24 02:25:00,56.7,52.9,29.96,NW,317,0.0,0.0,87,0.00,,,0.00,Wunderground v.1.13,2013-07-24 07:25:00,
2013-07-24 02:28:00,56.7,53.2,29.96,NW,317,0.0,0.0,88,0.00,,,0.00,Wunderground v.1.13,2013-07-24 07:28:00,
2013-07-24 02:29:00,56.7,53.2,29.95,NW,317,0.0,0.0,88,0.00,,,0.00,Wunderground v.1.13,2013-07-24 07:29:00,
2013-07-24 02:30:00,56.7,53.2,29.95,North,349,0.0,2.0,88,0.00,,,0.00,Wunderground v.1.13,2013-07-24 07:30:00,
2013-07-24 02:31:00,56.8,53.3,29.95,North,349,0.0,2.0,88,0.00,,,0.00,Wunderground v.1.13,2013-07-24 07:31:00,
2013-07-24 02:34:00,57.0,53.5,29.96,North,349,0.0,2.0,88,0.00,,,0.00,Wunderground v.1.13,2013-07-24 07:34:00,
2013-07-24 02:36:00,57.0,53.5,29.96,North,349,0.0,2.0,88,0.00,,,0.00,Wunderground v.1.13,2013-07-24 07:36:00,
2013-07-24 02:38:00,57.0,53.5,29.96,North,349,0.0,0.0,88,0.00,,,0.00,Wunderground v.1.13,2013-07-24 07:38:00,
2013-07-24 02:40:00,56.9,53.4,29.96,North,349,0.0,0.0,88,0.00,,,0.00,Wunderground v.1.13,2013-07-24 07:40:00,
2013-07-24 02:42:00,56.8,53.0,29.96,North,349,0.0,0.0,87,0.00,,,0.00,Wunderground v.1.13,2013-07-24 07:42:00,
2013-07-24 02:43:00,56.8,53.0,29.96,North,349,0.0,0.0,87,0.00,,,0.00,Wunderground v.1.13,2013-07-24 07:43:00,
2013-07-24 02:49:00,56.3,52.5,29.96,North,349,0.0,2.0,87,0.00,,,0.00,Wunderground v.1.13,2013-07-24 07:49:00,
2013-07-24 02:51:00,56.2,52.4,29.96,NNW,333,1.0,3.0,87,0.00,,,0.00,Wunderground v.1.13,2013-07-24 07:51:00,
2013-07-24 02:54:00,56.0,52.2,29.96,NNW,333,1.0,2.0,87,0.00,,,0.00,Wunderground v.1.13,2013-07-24 07:54:00,
2013-07-24 02:55:00,55.9,52.1,29.96,NNW,333,2.0,2.0,87,0.00,,,0.00,Wunderground v.1.13,2013-07-24 07:55:00,
2013-07-24 02:57:00,55.7,51.9,29.96,NNW,333,1.0,1.0,87,0.00,,,0.00,Wunderground v.1.13,2013-07-24 07:57:00,
2013-07-24 03:00:00,55.5,51.7,29.96,NNW,333,1.0,1.0,87,0.00,,,0.00,Wunderground v.1.13,2013-07-24 08:00:00,
2013-07-24 03:01:00,55.5,51.7,29.96,NNW,333,1.0,1.0,87,0.00,,,0.00,Wunderground v.1.13,2013-07-24 08:01:00,
2013-07-24 03:03:00,55.4,51.6,29.96,NNW,333,1.0,1.0,87,0.00,,,0.00,Wunderground v.1.13,2013-07-24 08:03:00,
2013-07-24 03:07:00,55.4,51.9,29.96,NNW,333,0.0,0.0,88,0.00,,,0.00,Wunderground v.1.13,2013-07-24 08:07:00,
2013-07-24 03:09:00,55.7,52.2,29.95,ENE,61,0.0,3.0,88,0.00,,,0.00,Wunderground v.1.13,2013-07-24 08:09:00,
2013-07-24 03:11:00,56.3,53.1,29.95,East,92,1.0,3.0,89,0.00,,,0.00,Wunderground v.1.13,2013-07-24 08:11:00,
2013-07-24 03:12:00,56.7,53.8,29.95,ESE,110,1.0,5.0,90,0.00,,,0.00,Wunderground v.1.13,2013-07-24 08:12:00,
2013-07-24 03:15:00,57.8,54.6,29.95,ESE,117,2.0,6.0,89,0.00,,,0.00,Wunderground v.1.13,2013-07-24 08:15:00,
2013-07-24 03:17:00,58.5,54.6,29.95,ESE,117,3.0,3.0,87,0.00,,,0.00,Wunderground v.1.13,2013-07-24 08:17:00,
2013-07-24 03:18:00,58.7,54.5,29.95,ESE,117,3.0,4.0,86,0.00,,,0.00,Wunderground v.1.13,2013-07-24 08:18:00,
2013-07-24 03:19:00,59.0,54.8,29.95,ESE,117,3.0,5.0,86,0.00,,,0.00,Wunderground v.1.13,2013-07-24 08:19:00,
2013-07-24 03:22:00,59.4,54.6,29.95,ESE,116,4.0,6.0,84,0.00,,,0.00,Wunderground v.1.13,2013-07-24 08:22:00,
2013-07-24 03:23:00,59.4,54.6,29.95,ESE,110,4.0,6.0,84,0.00,,,0.00,Wunderground v.1.13,2013-07-24 08:23:00,
2013-07-24 03:25:00,59.4,54.2,29.95,ESE,122,4.0,6.0,83,0.00,,,0.00,Wunderground v.1.13,2013-07-24 08:25:00,
2013-07-24 03:28:00,59.8,54.3,29.95,ESE,115,5.0,5.0,82,0.00,,,0.00,Wunderground v.1.13,2013-07-24 08:28:00,
2013-07-24 03:29:00,59.8,54.3,29.95,ESE,115,5.0,5.0,82,0.00,,,0.00,Wunderground v.1.13,2013-07-24 08:29:00,
2013-07-24 03:31:00,59.7,53.5,29.95,ESE,115,4.0,5.0,80,0.00,,,0.00,Wunderground v.1.13,2013-07-24 08:31:00,
2013-07-24 03:32:00,59.6,53.4,29.95,ESE,115,3.0,3.0,80,0.00,,,0.00,Wunderground v.1.13,2013-07-24 08:32:00,
2013-07-24 03:35:00,59.4,53.2,29.95,ESE,115,2.0,3.0,80,0.00,,,0.00,Wunderground v.1.13,2013-07-24 08:35:00,
2013-07-24 03:36:00,59.4,53.2,29.95,ESE,115,1.0,3.0,80,0.00,,,0.00,Wunderground v.1.13,2013-07-24 08:36:00,
2013-07-24 03:38:00,59.4,52.9,29.95,ESE,115,1.0,1.0,79,0.00,,,0.00,Wunderground v.1.13,2013-07-24 08:38:00,
2013-07-24 03:40:00,59.4,52.9,29.95,ESE,115,0.0,1.0,79,0.00,,,0.00,Wunderground v.1.13,2013-07-24 08:40:00,
2013-07-24 03:41:00,59.4,52.9,29.95,ESE,115,0.0,1.0,79,0.00,,,0.00,Wunderground v.1.13,2013-07-24 08:41:00,
2013-07-24 03:42:00,59.3,52.8,29.95,ESE,115,0.0,0.0,79,0.00,,,0.00,Wunderground v.1.13,2013-07-24 08:42:00,
2013-07-24 03:46:00,59.0,52.5,29.95,ESE,115,0.0,1.0,79,0.00,,,0.00,Wunderground v.1.13,2013-07-24 08:46:00,
2013-07-24 03:47:00,58.9,52.4,29.95,ESE,115,0.0,0.0,79,0.00,,,0.00,Wunderground v.1.13,2013-07-24 08:47:00,
2013-07-24 03:49:00,58.8,52.3,29.95,ESE,114,0.0,0.0,79,0.00,,,0.00,Wunderground v.1.13,2013-07-24 08:49:00,
2013-07-24 03:52:00,58.7,52.2,29.95,ESE,114,0.0,0.0,79,0.00,,,0.00,Wunderground v.1.13,2013-07-24 08:52:00,
2013-07-24 03:53:00,58.7,52.2,29.95,ESE,114,0.0,0.0,79,0.00,,,0.00,Wunderground v.1.13,2013-07-24 08:53:00,
2013-07-24 03:56:00,58.6,52.1,29.96,ESE,114,0.0,2.0,79,0.00,,,0.00,Wunderground v.1.13,2013-07-24 08:56:00,
2013-07-24 03:57:00,58.6,52.1,29.95,ESE,114,0.0,0.0,79,0.00,,,0.00,Wunderground v.1.13,2013-07-24 08:57:00,
2013-07-24 03:58:00,58.6,52.1,29.95,ESE,115,0.0,0.0,79,0.00,,,0.00,Wunderground v.1.13,2013-07-24 08:58:00,
2013-07-24 03:59:00,58.5,52.0,29.95,ESE,115,0.0,0.0,79,0.00,,,0.00,Wunderground v.1.13,2013-07-24 08:59:00,
2013-07-24 04:02:00,58.5,52.0,29.95,ESE,114,0.0,0.0,79,0.00,,,0.00,Wunderground v.1.13,2013-07-24 09:02:00,
2013-07-24 04:04:00,58.5,52.0,29.95,ESE,115,0.0,1.0,79,0.00,,,0.00,Wunderground v.1.13,2013-07-24 09:04:00,
2013-07-24 04:05:00,58.5,52.0,29.95,ESE,114,0.0,1.0,79,0.00,,,0.00,Wunderground v.1.13,2013-07-24 09:05:00,
2013-07-24 04:07:00,58.5,52.4,29.95,ESE,115,0.0,0.0,80,0.00,,,0.00,Wunderground v.1.13,2013-07-24 09:07:00,
2013-07-24 04:10:00,58.6,52.8,29.95,ESE,115,0.0,0.0,81,0.00,,,0.00,Wunderground v.1.13,2013-07-24 09:10:00,
2013-07-24 04:13:00,58.6,52.8,29.95,ESE,115,0.0,0.0,81,0.00,,,0.00,Wunderground v.1.13,2013-07-24 09:13:00,
2013-07-24 04:15:00,58.7,52.9,29.95,ESE,115,0.0,0.0,81,0.00,,,0.00,Wunderground v.1.13,2013-07-24 09:15:00,
2013-07-24 04:16:00,58.7,52.9,29.95,ESE,115,0.0,4.0,81,0.00,,,0.00,Wunderground v.1.13,2013-07-24 09:16:00,
2013-07-24 04:19:00,58.7,52.9,29.95,ESE,115,0.0,1.0,81,0.00,,,0.00,Wunderground v.1.13,2013-07-24 09:19:00,
2013-07-24 04:22:00,58.7,52.9,29.95,ESE,115,0.0,0.0,81,0.00,,,0.00,Wunderground v.1.13,2013-07-24 09:22:00,
2013-07-24 04:23:00,58.7,52.9,29.95,ESE,115,0.0,0.0,81,0.00,,,0.00,Wunderground v.1.13,2013-07-24 09:23:00,
2013-07-24 04:24:00,58.7,52.9,29.95,ESE,115,0.0,4.0,81,0.00,,,0.00,Wunderground v.1.13,2013-07-24 09:24:00,
2013-07-24 04:26:00,58.7,52.9,29.95,ESE,114,0.0,4.0,81,0.00,,,0.00,Wunderground v.1.13,2013-07-24 09:26:00,
2013-07-24 04:28:00,58.6,52.8,29.95,ESE,115,0.0,0.0,81,0.00,,,0.00,Wunderground v.1.13,2013-07-24 09:28:00,
2013-07-24 04:33:00,58.5,52.4,29.96,ESE,115,0.0,0.0,80,0.00,,,0.00,Wunderground v.1.13,2013-07-24 09:33:00,
2013-07-24 04:35:00,58.5,52.7,29.96,ESE,114,0.0,0.0,81,0.00,,,0.00,Wunderground v.1.13,2013-07-24 09:35:00,
2013-07-24 04:36:00,58.5,52.7,29.96,ESE,115,0.0,1.0,81,0.00,,,0.00,Wunderground v.1.13,2013-07-24 09:36:00,
2013-07-24 04:37:00,58.5,52.7,29.96,ESE,114,0.0,0.0,81,0.00,,,0.00,Wunderground v.1.13,2013-07-24 09:37:00,
2013-07-24 04:39:00,58.6,53.1,29.96,ESE,115,0.0,3.0,82,0.00,,,0.00,Wunderground v.1.13,2013-07-24 09:39:00,
2013-07-24 04:40:00,58.6,53.1,29.96,ESE,114,1.0,3.0,82,0.00,,,0.00,Wunderground v.1.13,2013-07-24 09:40:00,
2013-07-24 04:43:00,58.8,53.3,29.96,ESE,115,1.0,5.0,82,0.00,,,0.00,Wunderground v.1.13,2013-07-24 09:43:00,
2013-07-24 04:44:00,58.8,53.3,29.96,ESE,114,1.0,5.0,82,0.00,,,0.00,Wunderground v.1.13,2013-07-24 09:44:00,
2013-07-24 04:45:00,58.8,53.3,29.96,ESE,114,1.0,5.0,82,0.00,,,0.00,Wunderground v.1.13,2013-07-24 09:45:00,
2013-07-24 04:46:00,58.8,53.3,29.96,ESE,115,1.0,5.0,82,0.00,,,0.00,Wunderground v.1.13,2013-07-24 09:46:00,
2013-07-24 04:48:00,58.9,53.4,29.96,ESE,115,1.0,2.0,82,0.00,,,0.00,Wunderground v.1.13,2013-07-24 09:48:00,
2013-07-24 04:49:00,58.9,53.7,29.96,ESE,114,1.0,2.0,83,0.00,,,0.00,Wunderground v.1.13,2013-07-24 09:49:00,
2013-07-24 04:50:00,59.0,53.8,29.96,ESE,115,1.0,2.0,83,0.00,,,0.00,Wunderground v.1.13,2013-07-24 09:50:00,
2013-07-24 04:53:00,59.1,53.9,29.96,ESE,114,1.0,4.0,83,0.00,,,0.00,Wunderground v.1.13,2013-07-24 09:53:00,
2013-07-24 04:55:00,59.1,53.9,29.96,ESE,114,1.0,4.0,83,0.00,,,0.00,Wunderground v.1.13,2013-07-24 09:55:00,
2013-07-24 04:57:00,59.1,53.9,29.96,ESE,114,1.0,2.0,83,0.00,,,0.00,Wunderground v.1.13,2013-07-24 09:57:00,
2013-07-24 04:58:00,59.1,53.9,29.96,ESE,115,1.0,2.0,83,0.00,,,0.00,Wunderground v.1.13,2013-07-24 09:58:00,
2013-07-24 05:00:00,59.1,53.9,29.96,ESE,115,1.0,2.0,83,0.00,,,0.00,Wunderground v.1.13,2013-07-24 10:00:00,
2013-07-24 05:03:00,59.1,53.9,29.96,ESE,115,1.0,1.0,83,0.00,,,0.00,Wunderground v.1.13,2013-07-24 10:03:00,
2013-07-24 05:04:00,59.1,53.6,29.96,ESE,115,1.0,2.0,82,0.00,,,0.00,Wunderground v.1.13,2013-07-24 10:04:00,
2013-07-24 05:06:00,59.1,53.6,29.96,ESE,115,1.0,2.0,82,0.00,,,0.00,Wunderground v.1.13,2013-07-24 10:06:00,
2013-07-24 05:07:00,59.1,53.6,29.97,ESE,115,1.0,1.0,82,0.00,,,0.00,Wunderground v.1.13,2013-07-24 10:07:00,
2013-07-24 05:10:00,59.1,53.6,29.97,ESE,115,0.0,1.0,82,0.00,,,0.00,Wunderground v.1.13,2013-07-24 10:10:00,
2013-07-24 05:11:00,59.2,53.7,29.97,ESE,115,0.0,1.0,82,0.00,,,0.00,Wunderground v.1.13,2013-07-24 10:11:00,
2013-07-24 05:12:00,59.3,53.8,29.97,ESE,114,0.0,0.0,82,0.00,,,0.00,Wunderground v.1.13,2013-07-24 10:12:00,
2013-07-24 05:17:00,59.4,53.6,29.96,ESE,115,0.0,0.0,81,0.00,,,0.00,Wunderground v.1.13,2013-07-24 10:17:00,
2013-07-24 05:18:00,59.4,53.6,29.96,ESE,114,0.0,2.0,81,0.00,,,0.00,Wunderground v.1.13,2013-07-24 10:18:00,
2013-07-24 05:20:00,59.4,53.9,29.97,ESE,114,1.0,2.0,82,0.00,,,0.00,Wunderground v.1.13,2013-07-24 10:20:00,
2013-07-24 05:22:00,59.4,53.6,29.97,ESE,115,1.0,1.0,81,0.00,,,0.00,Wunderground v.1.13,2013-07-24 10:22:00,
2013-07-24 05:23:00,59.4,53.6,29.97,ESE,114,1.0,1.0,81,0.00,,,0.00,Wunderground v.1.13,2013-07-24 10:23:00,
2013-07-24 05:24:00,59.4,53.6,29.97,ESE,114,1.0,1.0,81,0.00,,,0.00,Wunderground v.1.13,2013-07-24 10:24:00,
2013-07-24 05:29:00,59.4,52.9,29.97,ESE,115,0.0,1.0,79,0.00,,,0.00,Wunderground v.1.13,2013-07-24 10:29:00,
2013-07-24 05:30:00,59.4,52.9,29.97,ESE,114,0.0,1.0,79,0.00,,,0.00,Wunderground v.1.13,2013-07-24 10:30:00,
2013-07-24 05:33:00,59.4,52.5,29.97,ESE,115,0.0,1.0,78,0.00,,,0.00,Wunderground v.1.13,2013-07-24 10:33:00,
2013-07-24 05:35:00,59.4,52.5,29.97,ESE,114,0.0,1.0,78,0.00,,,0.00,Wunderground v.1.13,2013-07-24 10:35:00,
2013-07-24 05:36:00,59.4,52.5,29.97,ESE,115,0.0,1.0,78,0.00,,,0.00,Wunderground v.1.13,2013-07-24 10:36:00,
2013-07-24 05:37:00,59.4,52.5,29.97,ESE,115,0.0,0.0,78,0.00,,,0.00,Wunderground v.1.13,2013-07-24 10:37:00,
2013-07-24 05:38:00,59.4,52.5,29.97,ESE,115,0.0,0.0,78,0.00,,,0.00,Wunderground v.1.13,2013-07-24 10:38:00,
2013-07-24 05:39:00,59.4,52.5,29.97,ESE,115,0.0,0.0,78,0.00,,,0.00,Wunderground v.1.13,2013-07-24 10:39:00,
2013-07-24 05:42:00,59.4,52.5,29.97,ESE,115,0.0,0.0,78,0.00,,,0.00,Wunderground v.1.13,2013-07-24 10:42:00,
2013-07-24 05:44:00,59.4,52.5,29.97,ESE,114,0.0,0.0,78,0.00,,,0.00,Wunderground v.1.13,2013-07-24 10:44:00,
2013-07-24 05:45:00,59.4,52.5,29.97,ESE,115,0.0,0.0,78,0.00,,,0.00,Wunderground v.1.13,2013-07-24 10:45:00,
2013-07-24 05:46:00,59.4,52.5,29.97,ESE,115,0.0,0.0,78,0.00,,,0.00,Wunderground v.1.13,2013-07-24 10:46:00,
2013-07-24 05:47:00,59.4,52.5,29.97,ESE,115,0.0,2.0,78,0.00,,,0.00,Wunderground v.1.13,2013-07-24 10:47:00,
2013-07-24 05:48:00,59.3,52.4,29.97,ESE,115,0.0,2.0,78,0.00,,,0.00,Wunderground v.1.13,2013-07-24 10:48:00,
2013-07-24 05:51:00,59.1,52.2,29.97,ESE,115,0.0,2.0,78,0.00,,,0.00,Wunderground v.1.13,2013-07-24 10:51:00,
2013-07-24 05:53:00,59.1,52.2,29.97,ESE,114,0.0,0.0,78,0.00,,,0.00,Wunderground v.1.13,2013-07-24 10:53:00,
2013-07-24 05:54:00,59.1,52.2,29.97,ESE,115,0.0,0.0,78,0.00,,,0.00,Wunderground v.1.13,2013-07-24 10:54:00,
2013-07-24 05:56:00,59.1,52.2,29.97,ESE,114,0.0,0.0,78,0.00,,,0.00,Wunderground v.1.13,2013-07-24 10:56:00,
2013-07-24 05:57:00,59.1,52.2,29.97,ESE,114,0.0,0.0,78,0.00,,,0.00,Wunderground v.1.13,2013-07-24 10:57:00,
2013-07-24 06:00:00,59.0,52.1,29.97,ESE,115,0.0,0.0,78,0.00,,,0.00,Wunderground v.1.13,2013-07-24 11:00:00,
2013-07-24 06:03:00,59.0,52.1,29.98,ESE,115,0.0,1.0,78,0.00,,,0.00,Wunderground v.1.13,2013-07-24 11:03:00,
2013-07-24 06:05:00,59.0,52.1,29.97,ESE,115,0.0,1.0,78,0.00,,,0.00,Wunderground v.1.13,2013-07-24 11:05:00,
2013-07-24 06:06:00,59.0,52.1,29.97,ESE,114,0.0,1.0,78,0.00,,,0.00,Wunderground v.1.13,2013-07-24 11:06:00,
2013-07-24 06:07:00,58.9,52.1,29.97,ESE,115,0.0,0.0,78,0.00,,,0.00,Wunderground v.1.13,2013-07-24 11:07:00,
2013-07-24 06:10:00,58.9,52.1,29.97,ESE,115,0.0,1.0,78,0.00,,,0.00,Wunderground v.1.13,2013-07-24 11:10:00,
2013-07-24 06:12:00,58.9,52.1,29.97,ESE,115,0.0,0.0,78,0.00,,,0.00,Wunderground v.1.13,2013-07-24 11:12:00,
2013-07-24 06:16:00,58.9,52.4,29.97,ESE,115,0.0,0.0,79,0.00,,,0.00,Wunderground v.1.13,2013-07-24 11:16:00,
2013-07-24 06:17:00,58.9,52.4,29.97,ESE,115,0.0,0.0,79,0.00,,,0.00,Wunderground v.1.13,2013-07-24 11:17:00,
2013-07-24 06:19:00,58.8,52.3,29.98,ESE,114,0.0,1.0,79,0.00,,,0.00,Wunderground v.1.13,2013-07-24 11:19:00,
2013-07-24 06:22:00,58.8,52.3,29.97,ESE,114,0.0,0.0,79,0.00,,,0.00,Wunderground v.1.13,2013-07-24 11:22:00,
2013-07-24 06:24:00,58.8,52.3,29.98,ESE,115,0.0,4.0,79,0.00,,,0.00,Wunderground v.1.13,2013-07-24 11:24:00,
2013-07-24 06:25:00,58.8,52.3,29.98,ESE,115,1.0,4.0,79,0.00,,,0.00,Wunderground v.1.13,2013-07-24 11:25:00,
2013-07-24 06:28:00,58.7,52.2,29.98,ESE,114,0.0,0.0,79,0.00,,,0.00,Wunderground v.1.13,2013-07-24 11:28:00,
2013-07-24 06:29:00,58.7,52.2,29.98,ESE,115,0.0,0.0,79,0.00,,,0.00,Wunderground v.1.13,2013-07-24 11:29:00,
2013-07-24 06:30:00,58.7,52.2,29.98,ESE,114,0.0,0.0,79,0.00,,,0.00,Wunderground v.1.13,2013-07-24 11:30:00,
2013-07-24 06:34:00,58.7,52.5,29.98,ESE,114,0.0,0.0,80,0.00,,,0.00,Wunderground v.1.13,2013-07-24 11:34:00,
2013-07-24 06:35:00,58.7,52.5,29.98,ESE,114,0.0,2.0,80,0.00,,,0.00,Wunderground v.1.13,2013-07-24 11:35:00,
2013-07-24 06:36:00,58.7,52.5,29.98,ESE,114,0.0,2.0,80,0.00,,,0.00,Wunderground v.1.13,2013-07-24 11:36:00,
2013-07-24 06:40:00,58.8,52.6,29.98,ESE,115,0.0,2.0,80,0.00,,,0.00,Wunderground v.1.13,2013-07-24 11:40:00,
2013-07-24 06:41:00,58.8,52.6,29.98,ESE,115,0.0,2.0,80,0.00,,,0.00,Wunderground v.1.13,2013-07-24 11:41:00,
2013-07-24 06:42:00,58.8,52.6,29.98,ESE,114,0.0,0.0,80,0.00,,,0.00,Wunderground v.1.13,2013-07-24 11:42:00,
2013-07-24 06:43:00,58.8,52.6,29.98,ESE,115,0.0,0.0,80,0.00,,,0.00,Wunderground v.1.13,2013-07-24 11:43:00,
2013-07-24 06:45:00,58.8,52.6,29.98,ESE,115,0.0,1.0,80,0.00,,,0.00,Wunderground v.1.13,2013-07-24 11:45:00,
2013-07-24 06:47:00,58.9,52.4,29.98,ESE,115,1.0,1.0,79,0.00,,,0.00,Wunderground v.1.13,2013-07-24 11:47:00,
2013-07-24 06:48:00,58.9,52.7,29.98,ESE,115,1.0,2.0,80,0.00,,,0.00,Wunderground v.1.13,2013-07-24 11:48:00,
2013-07-24 06:52:00,59.0,52.8,29.98,ESE,114,2.0,2.0,80,0.00,,,0.00,Wunderground v.1.13,2013-07-24 11:52:00,
2013-07-24 06:54:00,59.0,52.8,29.99,ESE,115,2.0,2.0,80,0.00,,,0.00,Wunderground v.1.13,2013-07-24 11:54:00,
2013-07-24 06:55:00,59.0,52.8,29.99,ESE,114,2.0,2.0,80,0.00,,,0.00,Wunderground v.1.13,2013-07-24 11:55:00,
2013-07-24 06:56:00,59.1,52.9,29.99,ESE,114,2.0,2.0,80,0.00,,,0.00,Wunderground v.1.13,2013-07-24 11:56:00,
2013-07-24 07:00:00,59.1,53.3,29.99,ESE,114,1.0,2.0,81,0.00,,,0.00,Wunderground v.1.13,2013-07-24 12:00:00,
2013-07-24 07:04:00,59.2,53.0,29.99,West,271,1.0,4.0,80,0.00,,,0.00,Wunderground v.1.13,2013-07-24 12:04:00,
2013-07-24 07:06:00,59.4,52.9,29.99,West,271,2.0,4.0,79,0.00,,,0.00,Wunderground v.1.13,2013-07-24 12:06:00,
2013-07-24 07:08:00,59.4,52.9,29.99,West,271,1.0,1.0,79,0.00,,,0.00,Wunderground v.1.13,2013-07-24 12:08:00,
2013-07-24 07:10:00,59.4,52.5,29.99,West,269,1.0,1.0,78,0.00,,,0.00,Wunderground v.1.13,2013-07-24 12:10:00,
2013-07-24 07:12:00,59.6,52.7,29.99,West,269,1.0,1.0,78,0.00,,,0.00,Wunderground v.1.13,2013-07-24 12:12:00,
2013-07-24 07:13:00,59.7,52.8,29.99,West,270,1.0,1.0,78,0.00,,,0.00,Wunderground v.1.13,2013-07-24 12:13:00,
2013-07-24 07:15:00,59.8,52.6,29.99,West,270,1.0,1.0,77,0.00,,,0.00,Wunderground v.1.13,2013-07-24 12:15:00,
2013-07-24 07:16:00,59.8,52.6,29.99,West,269,0.0,4.0,77,0.00,,,0.00,Wunderground v.1.13,2013-07-24 12:16:00,
2013-07-24 07:17:00,59.9,52.7,29.99,West,269,1.0,1.0,77,0.00,,,0.00,Wunderground v.1.13,2013-07-24 12:17:00,
2013-07-24 07:18:00,60.0,52.8,29.99,West,269,1.0,2.0,77,0.00,,,0.00,Wunderground v.1.13,2013-07-24 12:18:00,
2013-07-24 07:23:00,60.3,53.1,29.99,West,269,1.0,2.0,77,0.00,,,0.00,Wunderground v.1.13,2013-07-24 12:23:00,
2013-07-24 07:24:00,60.3,53.4,29.99,West,269,1.0,3.0,78,0.00,,,0.00,Wunderground v.1.13,2013-07-24 12:24:00,
2013-07-24 07:26:00,60.3,53.4,29.99,West,269,1.0,3.0,78,0.00,,,0.00,Wunderground v.1.13,2013-07-24 12:26:00,
2013-07-24 07:28:00,60.3,53.1,29.99,West,269,1.0,1.0,77,0.00,,,0.00,Wunderground v.1.13,2013-07-24 12:28:00,
2013-07-24 07:29:00,60.3,53.1,29.99,West,269,1.0,2.0,77,0.00,,,0.00,Wunderground v.1.13,2013-07-24 12:29:00,
2013-07-24 07:32:00,60.3,53.4,29.99,West,269,1.0,2.0,78,0.00,,,0.00,Wunderground v.1.13,2013-07-24 12:32:00,
2013-07-24 07:34:00,60.3,53.4,29.99,West,269,2.0,2.0,78,0.00,,,0.00,Wunderground v.1.13,2013-07-24 12:34:00,
2013-07-24 07:36:00,60.2,53.3,29.99,West,269,1.0,2.0,78,0.00,,,0.00,Wunderground v.1.13,2013-07-24 12:36:00,
2013-07-24 07:37:00,60.2,53.3,29.99,West,269,1.0,1.0,78,0.00,,,0.00,Wunderground v.1.13,2013-07-24 12:37:00,
2013-07-24 07:40:00,60.2,53.3,29.99,West,269,1.0,1.0,78,0.00,,,0.00,Wunderground v.1.13,2013-07-24 12:40:00,
2013-07-24 07:42:00,60.2,53.7,29.99,West,269,1.0,2.0,79,0.00,,,0.00,Wunderground v.1.13,2013-07-24 12:42:00,
2013-07-24 07:44:00,60.3,53.8,29.99,West,269,1.0,2.0,79,0.00,,,0.00,Wunderground v.1.13,2013-07-24 12:44:00,
2013-07-24 07:45:00,60.4,53.9,29.99,West,269,0.0,2.0,79,0.00,,,0.00,Wunderground v.1.13,2013-07-24 12:45:00,
2013-07-24 07:48:00,60.5,53.6,29.99,West,269,0.0,1.0,78,0.00,,,0.00,Wunderground v.1.13,2013-07-24 12:48:00,
2013-07-24 07:50:00,60.6,53.3,29.99,West,269,1.0,1.0,77,0.00,,,0.00,Wunderground v.1.13,2013-07-24 12:50:00,
2013-07-24 07:51:00,60.6,53.3,29.99,West,269,1.0,1.0,77,0.00,,,0.00,Wunderground v.1.13,2013-07-24 12:51:00,
2013-07-24 07:55:00,60.8,53.2,29.99,West,269,1.0,3.0,76,0.00,,,0.00,Wunderground v.1.13,2013-07-24 12:55:00,
2013-07-24 07:57:00,60.9,53.6,29.99,West,269,1.0,1.0,77,0.00,,,0.00,Wunderground v.1.13,2013-07-24 12:57:00,
2013-07-24 07:58:00,61.0,53.7,29.99,West,269,1.0,1.0,77,0.00,,,0.00,Wunderground v.1.13,2013-07-24 12:58:00,
2013-07-24 08:03:00,61.2,53.9,29.99,West,269,1.0,2.0,77,0.00,,,0.00,Wunderground v.1.13,2013-07-24 13:03:00,
2013-07-24 08:07:00,61.4,54.1,29.99,West,269,1.0,2.0,77,0.00,,,0.00,Wunderground v.1.13,2013-07-24 13:07:00,
2013-07-24 08:08:00,61.4,53.8,29.99,West,269,1.0,2.0,76,0.00,,,0.00,Wunderground v.1.13,2013-07-24 13:08:00,
2013-07-24 08:09:00,61.5,53.9,29.99,West,269,1.0,2.0,76,0.00,,,0.00,Wunderground v.1.13,2013-07-24 13:09:00,
2013-07-24 08:10:00,61.5,53.9,29.99,West,269,1.0,2.0,76,0.00,,,0.00,Wunderground v.1.13,2013-07-24 13:10:00,
2013-07-24 08:15:00,61.6,53.6,29.99,West,269,0.0,2.0,75,0.00,,,0.00,Wunderground v.1.13,2013-07-24 13:15:00,
2013-07-24 08:16:00,61.7,54.1,29.99,West,269,0.0,2.0,76,0.00,,,0.00,Wunderground v.1.13,2013-07-24 13:16:00,
2013-07-24 08:19:00,61.7,53.7,29.99,West,269,0.0,0.0,75,0.00,,,0.00,Wunderground v.1.13,2013-07-24 13:19:00,
2013-07-24 08:23:00,61.8,53.8,29.99,West,269,0.0,1.0,75,0.00,,,0.00,Wunderground v.1.13,2013-07-24 13:23:00,
2013-07-24 08:24:00,61.8,53.8,29.99,West,269,0.0,1.0,75,0.00,,,0.00,Wunderground v.1.13,2013-07-24 13:24:00,
2013-07-24 08:25:00,61.8,53.8,29.99,West,269,0.0,1.0,75,0.00,,,0.00,Wunderground v.1.13,2013-07-24 13:25:00,
2013-07-24 08:28:00,61.9,53.9,29.99,West,269,0.0,0.0,75,0.00,,,0.00,Wunderground v.1.13,2013-07-24 13:28:00,
2013-07-24 08:32:00,62.0,54.3,29.99,West,269,0.0,0.0,76,0.00,,,0.00,Wunderground v.1.13,2013-07-24 13:32:00,
2013-07-24 08:33:00,62.0,54.3,29.99,West,269,0.0,0.0,76,0.00,,,0.00,Wunderground v.1.13,2013-07-24 13:33:00,
2013-07-24 08:38:00,62.2,54.5,29.99,West,269,0.0,0.0,76,0.00,,,0.00,Wunderground v.1.13,2013-07-24 13:38:00,
2013-07-24 08:39:00,62.3,54.6,29.99,West,269,0.0,0.0,76,0.00,,,0.00,Wunderground v.1.13,2013-07-24 13:39:00,
2013-07-24 08:42:00,62.4,54.7,29.99,West,269,0.0,1.0,76,0.00,,,0.00,Wunderground v.1.13,2013-07-24 13:42:00,
2013-07-24 08:44:00,62.5,54.8,29.99,West,269,0.0,0.0,76,0.00,,,0.00,Wunderground v.1.13,2013-07-24 13:44:00,
2013-07-24 08:45:00,62.5,55.2,29.99,West,269,0.0,0.0,77,0.00,,,0.00,Wunderground v.1.13,2013-07-24 13:45:00,
2013-07-24 08:47:00,62.5,55.2,29.99,West,269,0.0,0.0,77,0.00,,,0.00,Wunderground v.1.13,2013-07-24 13:47:00,
2013-07-24 08:50:00,62.6,55.3,29.99,West,269,0.0,0.0,77,0.00,,,0.00,Wunderground v.1.13,2013-07-24 13:50:00,
2013-07-24 08:51:00,62.7,55.4,29.99,West,269,0.0,0.0,77,0.00,,,0.00,Wunderground v.1.13,2013-07-24 13:51:00,
2013-07-24 08:53:00,62.7,55.4,29.99,West,269,0.0,0.0,77,0.00,,,0.00,Wunderground v.1.13,2013-07-24 13:53:00,
2013-07-24 08:56:00,62.8,55.5,30.00,West,269,0.0,1.0,77,0.00,,,0.00,Wunderground v.1.13,2013-07-24 13:56:00,
2013-07-24 08:57:00,62.8,55.5,30.00,West,269,0.0,0.0,77,0.00,,,0.00,Wunderground v.1.13,2013-07-24 13:57:00,
2013-07-24 08:58:00,62.9,55.9,30.00,West,269,0.0,0.0,78,0.00,,,0.00,Wunderground v.1.13,2013-07-24 13:58:00,
2013-07-24 09:03:00,62.9,55.2,30.00,West,269,1.0,1.0,76,0.00,,,0.00,Wunderground v.1.13,2013-07-24 14:03:00,
2013-07-24 09:05:00,62.9,54.9,30.00,West,269,1.0,1.0,75,0.00,,,0.00,Wunderground v.1.13,2013-07-24 14:05:00,
2013-07-24 09:07:00,63.0,54.9,30.00,West,269,1.0,1.0,75,0.00,,,0.00,Wunderground v.1.13,2013-07-24 14:07:00,
2013-07-24 09:08:00,63.0,54.6,30.00,West,271,1.0,2.0,74,0.00,,,0.00,Wunderground v.1.13,2013-07-24 14:08:00,
2013-07-24 09:09:00,63.0,54.6,30.01,West,267,2.0,5.0,74,0.00,,,0.00,Wunderground v.1.13,2013-07-24 14:09:00,
2013-07-24 09:11:00,63.0,54.6,30.00,West,267,2.0,2.0,74,0.00,,,0.00,Wunderground v.1.13,2013-07-24 14:11:00,
2013-07-24 09:13:00,63.0,55.3,30.00,West,267,2.0,2.0,76,0.00,,,0.00,Wunderground v.1.13,2013-07-24 14:13:00,
2013-07-24 09:14:00,63.0,54.9,30.00,SW,232,2.0,2.0,75,0.00,,,0.00,Wunderground v.1.13,2013-07-24 14:14:00,
2013-07-24 09:15:00,63.1,55.0,30.01,SW,232,2.0,2.0,75,0.00,,,0.00,Wunderground v.1.13,2013-07-24 14:15:00,
2013-07-24 09:17:00,63.1,54.7,30.01,West,259,2.0,3.0,74,0.00,,,0.00,Wunderground v.1.13,2013-07-24 14:17:00,
2013-07-24 09:20:00,63.1,54.7,30.01,WSW,252,2.0,4.0,74,0.00,,,0.00,Wunderground v.1.13,2013-07-24 14:20:00,
2013-07-24 09:22:00,63.1,54.7,30.01,WSW,245,3.0,8.0,74,0.00,,,0.00,Wunderground v.1.13,2013-07-24 14:22:00,
2013-07-24 09:23:00,63.1,54.7,30.01,West,265,4.0,8.0,74,0.00,,,0.00,Wunderground v.1.13,2013-07-24 14:23:00,
2013-07-24 09:27:00,62.9,54.9,30.01,West,260,5.0,5.0,75,0.00,,,0.00,Wunderground v.1.13,2013-07-24 14:27:00,
2013-07-24 09:28:00,62.9,54.5,30.01,West,261,5.0,5.0,74,0.00,,,0.00,Wunderground v.1.13,2013-07-24 14:28:00,
2013-07-24 09:30:00,62.8,54.8,30.01,West,261,4.0,5.0,75,0.00,,,0.00,Wunderground v.1.13,2013-07-24 14:30:00,
2013-07-24 09:32:00,62.7,54.7,30.01,WSW,254,4.0,4.0,75,0.00,,,0.00,Wunderground v.1.13,2013-07-24 14:32:00,
2013-07-24 09:35:00,62.7,55.0,30.01,WSW,254,2.0,4.0,76,0.00,,,0.00,Wunderground v.1.13,2013-07-24 14:35:00,
2013-07-24 09:37:00,62.8,55.5,30.01,WSW,254,1.0,2.0,77,0.00,,,0.00,Wunderground v.1.13,2013-07-24 14:37:00,
2013-07-24 09:39:00,62.9,55.6,30.01,WSW,254,1.0,2.0,77,0.00,,,0.00,Wunderground v.1.13,2013-07-24 14:39:00,
2013-07-24 09:40:00,62.9,55.2,30.01,WSW,254,0.0,2.0,76,0.00,,,0.00,Wunderground v.1.13,2013-07-24 14:40:00,
2013-07-24 09:41:00,62.9,55.2,30.01,WSW,254,0.0,0.0,76,0.00,,,0.00,Wunderground v.1.13,2013-07-24 14:41:00,
2013-07-24 09:44:00,63.1,55.0,30.01,WSW,254,0.0,0.0,75,0.00,,,0.00,Wunderground v.1.13,2013-07-24 14:44:00,
2013-07-24 09:45:00,63.1,55.4,30.01,WSW,254,0.0,0.0,76,0.00,,,0.00,Wunderground v.1.13,2013-07-24 14:45:00,
2013-07-24 09:47:00,63.2,55.5,30.01,WSW,254,0.0,0.0,76,0.00,,,0.00,Wunderground v.1.13,2013-07-24 14:47:00,
2013-07-24 09:48:00,63.2,55.5,30.01,WSW,254,0.0,0.0,76,0.00,,,0.00,Wunderground v.1.13,2013-07-24 14:48:00,
2013-07-24 09:51:00,63.3,55.6,30.00,WSW,254,0.0,0.0,76,0.00,,,0.00,Wunderground v.1.13,2013-07-24 14:51:00,
2013-07-24 09:52:00,63.3,55.2,30.00,WSW,254,0.0,0.0,75,0.00,,,0.00,Wunderground v.1.13,2013-07-24 14:52:00,
2013-07-24 09:53:00,63.4,55.3,30.00,WSW,254,0.0,0.0,75,0.00,,,0.00,Wunderground v.1.13,2013-07-24 14:53:00,
2013-07-24 09:58:00,63.5,55.4,30.00,WSW,254,0.0,0.0,75,0.00,,,0.00,Wunderground v.1.13,2013-07-24 14:58:00,
2013-07-24 09:59:00,63.5,55.4,30.00,WSW,254,0.0,0.0,75,0.00,,,0.00,Wunderground v.1.13,2013-07-24 14:59:00,
2013-07-24 10:01:00,63.6,55.2,30.00,WSW,254,0.0,0.0,74,0.00,,,0.00,Wunderground v.1.13,2013-07-24 15:01:00,
2013-07-24 10:05:00,63.8,55.4,30.00,WSW,254,0.0,0.0,74,0.00,,,0.00,Wunderground v.1.13,2013-07-24 15:05:00,
2013-07-24 10:07:00,63.9,54.7,30.00,WSW,254,0.0,0.0,72,0.00,,,0.00,Wunderground v.1.13,2013-07-24 15:07:00,
2013-07-24 10:08:00,63.9,54.7,30.00,WSW,254,0.0,0.0,72,0.00,,,0.00,Wunderground v.1.13,2013-07-24 15:08:00,
2013-07-24 10:09:00,63.9,54.3,30.00,WSW,254,0.0,0.0,71,0.00,,,0.00,Wunderground v.1.13,2013-07-24 15:09:00,
2013-07-24 10:11:00,64.1,54.9,30.00,SE,129,0.0,5.0,72,0.00,,,0.00,Wunderground v.1.13,2013-07-24 15:11:00,
2013-07-24 10:13:00,64.1,54.1,30.00,SE,127,1.0,5.0,70,0.00,,,0.00,Wunderground v.1.13,2013-07-24 15:13:00,
2013-07-24 10:15:00,64.1,54.1,30.00,SE,126,1.0,5.0,70,0.00,,,0.00,Wunderground v.1.13,2013-07-24 15:15:00,
2013-07-24 10:17:00,64.1,54.5,30.00,SE,127,1.0,2.0,71,0.00,,,0.00,Wunderground v.1.13,2013-07-24 15:17:00,
2013-07-24 10:22:00,64.1,53.7,30.00,SE,126,1.0,2.0,69,0.00,,,0.00,Wunderground v.1.13,2013-07-24 15:22:00,
2013-07-24 10:23:00,64.1,54.1,30.00,ESE,123,2.0,4.0,70,0.00,,,0.00,Wunderground v.1.13,2013-07-24 15:23:00,
2013-07-24 10:24:00,64.1,54.1,30.00,ESE,121,2.0,7.0,70,0.00,,,0.00,Wunderground v.1.13,2013-07-24 15:24:00,
2013-07-24 10:25:00,64.1,54.1,30.00,ESE,121,2.0,7.0,70,0.00,,,0.00,Wunderground v.1.13,2013-07-24 15:25:00,
2013-07-24 10:26:00,64.0,54.0,30.00,ESE,121,2.0,7.0,70,0.00,,,0.00,Wunderground v.1.13,2013-07-24 15:26:00,
2013-07-24 10:28:00,64.0,54.4,30.00,ESE,117,2.0,2.0,71,0.00,,,0.00,Wunderground v.1.13,2013-07-24 15:28:00,
2013-07-24 10:29:00,64.0,54.4,30.00,ESE,111,2.0,3.0,71,0.00,,,0.00,Wunderground v.1.13,2013-07-24 15:29:00,
2013-07-24 10:33:00,64.1,54.5,30.00,ESE,112,1.0,4.0,71,0.00,,,0.00,Wunderground v.1.13,2013-07-24 15:33:00,
2013-07-24 10:36:00,64.2,54.6,30.00,ESE,111,1.0,4.0,71,0.00,,,0.00,Wunderground v.1.13,2013-07-24 15:36:00,
2013-07-24 10:37:00,64.3,55.1,30.00,ESE,111,1.0,1.0,72,0.00,,,0.00,Wunderground v.1.13,2013-07-24 15:37:00,
2013-07-24 10:38:00,64.3,54.7,30.00,ESE,112,1.0,2.0,71,0.00,,,0.00,Wunderground v.1.13,2013-07-24 15:38:00,
2013-07-24 10:41:00,64.4,54.4,30.00,ESE,111,1.0,4.0,70,0.00,,,0.00,Wunderground v.1.13,2013-07-24 15:41:00,
2013-07-24 10:42:00,64.4,54.4,30.00,ESE,111,2.0,2.0,70,0.00,,,0.00,Wunderground v.1.13,2013-07-24 15:42:00,
2013-07-24 10:43:00,64.4,54.8,30.00,ESE,112,2.0,3.0,71,0.00,,,0.00,Wunderground v.1.13,2013-07-24 15:43:00,
2013-07-24 10:44:00,64.4,54.8,30.00,ESE,112,2.0,3.0,71,0.00,,,0.00,Wunderground v.1.13,2013-07-24 15:44:00,
2013-07-24 10:49:00,64.7,54.3,30.00,ESE,104,2.0,3.0,69,0.00,,,0.00,Wunderground v.1.13,2013-07-24 15:49:00,
2013-07-24 10:50:00,64.7,54.7,29.99,ESE,104,2.0,3.0,70,0.00,,,0.00,Wunderground v.1.13,2013-07-24 15:50:00,
2013-07-24 10:53:00,64.8,54.4,29.99,ESE,104,2.0,2.0,69,0.00,,,0.00,Wunderground v.1.13,2013-07-24 15:53:00,
2013-07-24 10:54:00,64.8,54.4,29.99,ESE,104,1.0,2.0,69,0.00,,,0.00,Wunderground v.1.13,2013-07-24 15:54:00,
2013-07-24 10:56:00,64.9,54.5,29.99,ESE,104,1.0,2.0,69,0.00,,,0.00,Wunderground v.1.13,2013-07-24 15:56:00,
2013-07-24 10:58:00,65.0,55.0,29.99,ESE,103,1.0,2.0,70,0.00,,,0.00,Wunderground v.1.13,2013-07-24 15:58:00,
2013-07-24 11:01:00,65.3,55.3,29.99,ESE,104,1.0,2.0,70,0.00,,,0.00,Wunderground v.1.13,2013-07-24 16:01:00,
2013-07-24 11:03:00,65.4,55.0,29.99,ESE,104,1.0,2.0,69,0.00,,,0.00,Wunderground v.1.13,2013-07-24 16:03:00,
2013-07-24 11:04:00,65.5,55.1,30.00,ESE,104,1.0,2.0,69,0.00,,,0.00,Wunderground v.1.13,2013-07-24 16:04:00,
2013-07-24 11:07:00,65.7,55.2,30.00,ESE,104,1.0,1.0,69,0.00,,,0.00,Wunderground v.1.13,2013-07-24 16:07:00,
2013-07-24 11:08:00,65.7,55.2,30.00,ESE,104,1.0,1.0,69,0.00,,,0.00,Wunderground v.1.13,2013-07-24 16:08:00,
2013-07-24 11:13:00,65.8,54.1,30.00,ESE,103,1.0,5.0,66,0.00,,,0.00,Wunderground v.1.13,2013-07-24 16:13:00,
2013-07-24 11:14:00,65.8,54.9,30.00,ESE,104,1.0,5.0,68,0.00,,,0.00,Wunderground v.1.13,2013-07-24 16:14:00,
2013-07-24 11:15:00,65.8,54.5,29.99,ESE,104,1.0,5.0,67,0.00,,,0.00,Wunderground v.1.13,2013-07-24 16:15:00,
2013-07-24 11:18:00,65.8,54.1,29.99,ESE,104,1.0,4.0,66,0.00,,,0.00,Wunderground v.1.13,2013-07-24 16:18:00,
2013-07-24 11:20:00,65.9,54.2,30.00,ESE,103,2.0,4.0,66,0.00,,,0.00,Wunderground v.1.13,2013-07-24 16:20:00,
2013-07-24 11:23:00,66.0,53.9,30.00,ESE,103,1.0,4.0,65,0.00,,,0.00,Wunderground v.1.13,2013-07-24 16:23:00,
2013-07-24 11:25:00,66.1,54.4,29.99,ESE,104,1.0,4.0,66,0.00,,,0.00,Wunderground v.1.13,2013-07-24 16:25:00,
2013-07-24 11:26:00,66.1,54.4,29.99,ESE,104,1.0,4.0,66,0.00,,,0.00,Wunderground v.1.13,2013-07-24 16:26:00,
2013-07-24 11:27:00,66.1,54.8,29.99,ESE,104,1.0,1.0,67,0.00,,,0.00,Wunderground v.1.13,2013-07-24 16:27:00,
2013-07-24 11:29:00,66.2,54.9,29.99,ESE,104,0.0,1.0,67,0.00,,,0.00,Wunderground v.1.13,2013-07-24 16:29:00,
2013-07-24 11:32:00,66.3,54.6,29.99,ESE,104,0.0,1.0,66,0.00,,,0.00,Wunderground v.1.13,2013-07-24 16:32:00,
2013-07-24 11:33:00,66.3,54.2,29.99,ESE,104,0.0,1.0,65,0.00,,,0.00,Wunderground v.1.13,2013-07-24 16:33:00,
2013-07-24 11:35:00,66.3,54.6,30.00,ESE,103,0.0,1.0,66,0.00,,,0.00,Wunderground v.1.13,2013-07-24 16:35:00,
2013-07-24 11:38:00,66.4,55.5,29.99,ESE,103,0.0,0.0,68,0.00,,,0.00,Wunderground v.1.13,2013-07-24 16:38:00,
2013-07-24 11:39:00,66.4,55.5,29.99,ESE,103,0.0,0.0,68,0.00,,,0.00,Wunderground v.1.13,2013-07-24 16:39:00,
2013-07-24 11:40:00,66.4,55.5,30.00,ESE,104,0.0,0.0,68,0.00,,,0.00,Wunderground v.1.13,2013-07-24 16:40:00,
2013-07-24 11:42:00,66.4,55.1,29.99,ESE,103,0.0,0.0,67,0.00,,,0.00,Wunderground v.1.13,2013-07-24 16:42:00,
2013-07-24 11:44:00,66.4,55.1,29.99,ESE,103,0.0,1.0,67,0.00,,,0.00,Wunderground v.1.13,2013-07-24 16:44:00,
2013-07-24 11:45:00,66.3,55.4,29.99,ESE,103,0.0,1.0,68,0.00,,,0.00,Wunderground v.1.13,2013-07-24 16:45:00,
2013-07-24 11:48:00,66.2,55.7,29.99,ESE,104,0.0,0.0,69,0.00,,,0.00,Wunderground v.1.13,2013-07-24 16:48:00,
2013-07-24 11:50:00,66.1,56.0,29.99,ESE,103,0.0,0.0,70,0.00,,,0.00,Wunderground v.1.13,2013-07-24 16:50:00,
2013-07-24 11:52:00,66.0,56.3,29.99,ESE,104,0.0,2.0,71,0.00,,,0.00,Wunderground v.1.13,2013-07-24 16:52:00,
2013-07-24 11:53:00,65.8,56.1,29.99,ESE,104,0.0,2.0,71,0.00,,,0.00,Wunderground v.1.13,2013-07-24 16:53:00,
2013-07-24 11:57:00,65.1,55.8,29.99,ESE,104,1.0,4.0,72,0.00,,,0.00,Wunderground v.1.13,2013-07-24 16:57:00,
2013-07-24 11:58:00,64.9,56.0,29.99,ESE,115,1.0,7.0,73,0.00,,,0.00,Wunderground v.1.13,2013-07-24 16:58:00,
2013-07-24 11:59:00,64.7,55.8,29.99,ESE,119,2.0,7.0,73,0.00,,,0.00,Wunderground v.1.13,2013-07-24 16:59:00,
2013-07-24 12:03:00,64.5,56.4,29.98,SE,130,3.0,3.0,75,0.00,,,0.00,Wunderground v.1.13,2013-07-24 17:03:00,
2013-07-24 12:04:00,64.4,56.3,29.99,SE,145,4.0,4.0,75,0.00,,,0.00,Wunderground v.1.13,2013-07-24 17:04:00,
2013-07-24 12:05:00,64.4,56.3,29.99,SE,130,4.0,5.0,75,0.00,,,0.00,Wunderground v.1.13,2013-07-24 17:05:00,
2013-07-24 12:07:00,64.3,56.6,29.99,ESE,115,4.0,4.0,76,0.00,,,0.00,Wunderground v.1.13,2013-07-24 17:07:00,
2013-07-24 12:09:00,64.4,57.0,29.99,ESE,115,4.0,5.0,77,0.00,,,0.00,Wunderground v.1.13,2013-07-24 17:09:00,
2013-07-24 12:11:00,64.5,56.8,29.98,ESE,114,4.0,4.0,76,0.00,,,0.00,Wunderground v.1.13,2013-07-24 17:11:00,
2013-07-24 12:13:00,64.5,56.8,29.98,ESE,114,4.0,5.0,76,0.00,,,0.00,Wunderground v.1.13,2013-07-24 17:13:00,
2013-07-24 12:17:00,64.7,57.3,29.98,ESE,115,3.0,5.0,77,0.00,,,0.00,Wunderground v.1.13,2013-07-24 17:17:00,
2013-07-24 12:18:00,64.8,57.8,29.98,ESE,115,4.0,5.0,78,0.00,,,0.00,Wunderground v.1.13,2013-07-24 17:18:00,
2013-07-24 12:19:00,64.9,58.2,29.98,ESE,115,3.0,5.0,79,0.00,,,0.00,Wunderground v.1.13,2013-07-24 17:19:00,
2013-07-24 12:21:00,65.2,57.1,29.98,ESE,115,3.0,3.0,75,0.00,,,0.00,Wunderground v.1.13,2013-07-24 17:21:00,
2013-07-24 12:23:00,65.4,57.3,29.98,ESE,115,3.0,3.0,75,0.00,,,0.00,Wunderground v.1.13,2013-07-24 17:23:00,
2013-07-24 12:25:00,65.6,57.1,29.98,ESE,115,2.0,4.0,74,0.00,,,0.00,Wunderground v.1.13,2013-07-24 17:25:00,
2013-07-24 12:30:00,65.6,56.7,29.98,ESE,115,2.0,3.0,73,0.00,,,0.00,Wunderground v.1.13,2013-07-24 17:30:00,
2013-07-24 12:31:00,65.7,56.8,29.98,ESE,116,2.0,3.0,73,0.00,,,0.00,Wunderground v.1.13,2013-07-24 17:31:00,
2013-07-24 12:32:00,65.7,56.4,29.99,ESE,116,2.0,2.0,72,0.00,,,0.00,Wunderground v.1.13,2013-07-24 17:32:00,
2013-07-24 12:33:00,65.8,56.5,29.99,ESE,115,2.0,2.0,72,0.00,,,0.00,Wunderground v.1.13,2013-07-24 17:33:00,
2013-07-24 12:36:00,66.0,56.3,29.98,ESE,115,1.0,5.0,71,0.00,,,0.00,Wunderground v.1.13,2013-07-24 17:36:00,
2013-07-24 12:38:00,66.1,56.4,29.98,ESE,115,2.0,4.0,71,0.00,,,0.00,Wunderground v.1.13,2013-07-24 17:38:00,
2013-07-24 12:39:00,66.1,56.4,29.98,ESE,116,2.0,4.0,71,0.00,,,0.00,Wunderground v.1.13,2013-07-24 17:39:00,
2013-07-24 12:42:00,66.5,57.2,29.98,ESE,116,3.0,4.0,72,0.00,,,0.00,Wunderground v.1.13,2013-07-24 17:42:00,
2013-07-24 12:43:00,66.6,57.3,29.98,ESE,114,3.0,4.0,72,0.00,,,0.00,Wunderground v.1.13,2013-07-24 17:43:00,
2013-07-24 12:45:00,66.9,57.6,29.98,ESE,115,3.0,7.0,72,0.00,,,0.00,Wunderground v.1.13,2013-07-24 17:45:00,
2013-07-24 12:47:00,67.0,57.3,29.98,ESE,115,4.0,5.0,71,0.00,,,0.00,Wunderground v.1.13,2013-07-24 17:47:00,
2013-07-24 12:51:00,67.4,57.3,29.98,ESE,114,3.0,6.0,70,0.00,,,0.00,Wunderground v.1.13,2013-07-24 17:51:00,
2013-07-24 12:52:00,67.5,57.8,29.98,ESE,115,3.0,4.0,71,0.00,,,0.00,Wunderground v.1.13,2013-07-24 17:52:00,
2013-07-24 12:56:00,68.2,57.6,29.98,ESE,111,3.0,6.0,69,0.00,,,0.00,Wunderground v.1.13,2013-07-24 17:56:00,
2013-07-24 12:57:00,68.3,56.9,29.98,ESE,112,3.0,6.0,67,0.00,,,0.00,Wunderground v.1.13,2013-07-24 17:57:00,
2013-07-24 12:58:00,68.3,57.3,29.98,ESE,112,3.0,6.0,68,0.00,,,0.00,Wunderground v.1.13,2013-07-24 17:58:00,
2013-07-24 13:01:00,68.7,57.7,29.98,ESE,111,3.0,3.0,68,0.00,,,0.00,Wunderground v.1.13,2013-07-24 18:01:00,
2013-07-24 13:03:00,68.9,57.1,29.98,ESE,111,3.0,3.0,66,0.00,,,0.00,Wunderground v.1.13,2013-07-24 18:03:00,
2013-07-24 13:04:00,68.9,57.1,29.98,ESE,111,3.0,3.0,66,0.00,,,0.00,Wunderground v.1.13,2013-07-24 18:04:00,
2013-07-24 13:07:00,69.2,57.8,29.98,ESE,111,2.0,4.0,67,0.00,,,0.00,Wunderground v.1.13,2013-07-24 18:07:00,
2013-07-24 13:09:00,69.2,57.8,29.97,ESE,114,3.0,6.0,67,0.00,,,0.00,Wunderground v.1.13,2013-07-24 18:09:00,
2013-07-24 13:10:00,69.1,57.7,29.97,ESE,114,3.0,6.0,67,0.00,,,0.00,Wunderground v.1.13,2013-07-24 18:10:00,
2013-07-24 13:13:00,69.1,56.8,29.97,ESE,113,3.0,4.0,65,0.00,,,0.00,Wunderground v.1.13,2013-07-24 18:13:00,
2013-07-24 13:14:00,69.2,57.4,29.97,ESE,114,3.0,4.0,66,0.00,,,0.00,Wunderground v.1.13,2013-07-24 18:14:00,
2013-07-24 13:16:00,69.5,57.6,29.97,ESE,114,3.0,3.0,66,0.00,,,0.00,Wunderground v.1.13,2013-07-24 18:16:00,
2013-07-24 13:18:00,70.1,58.2,29.97,ESE,114,3.0,3.0,66,0.00,,,0.00,Wunderground v.1.13,2013-07-24 18:18:00,
2013-07-24 13:19:00,70.4,57.2,29.97,ESE,113,2.0,3.0,63,0.00,,,0.00,Wunderground v.1.13,2013-07-24 18:19:00,
2013-07-24 13:23:00,71.1,57.0,29.96,ESE,114,2.0,4.0,61,0.00,,,0.00,Wunderground v.1.13,2013-07-24 18:23:00,
2013-07-24 13:24:00,71.2,57.1,29.96,ESE,113,1.0,4.0,61,0.00,,,0.00,Wunderground v.1.13,2013-07-24 18:24:00,
2013-07-24 13:25:00,71.3,56.7,29.96,ESE,114,1.0,4.0,60,0.00,,,0.00,Wunderground v.1.13,2013-07-24 18:25:00,
2013-07-24 13:28:00,71.6,56.5,29.96,ESE,114,2.0,4.0,59,0.00,,,0.00,Wunderground v.1.13,2013-07-24 18:28:00,
2013-07-24 13:34:00,72.1,57.9,29.96,ESE,114,1.0,1.0,61,0.00,,,0.00,Wunderground v.1.13,2013-07-24 18:34:00,
2013-07-24 13:36:00,72.1,57.4,29.96,ESE,114,2.0,6.0,60,0.00,,,0.00,Wunderground v.1.13,2013-07-24 18:36:00,
2013-07-24 13:37:00,72.0,57.4,29.96,ESE,114,2.0,6.0,60,0.00,,,0.00,Wunderground v.1.13,2013-07-24 18:37:00,
2013-07-24 13:38:00,71.9,56.8,29.96,ESE,114,2.0,5.0,59,0.00,,,0.00,Wunderground v.1.13,2013-07-24 18:38:00,
2013-07-24 13:42:00,71.4,56.8,29.96,ESE,114,3.0,5.0,60,0.00,,,0.00,Wunderground v.1.13,2013-07-24 18:42:00,
2013-07-24 13:43:00,71.4,56.8,29.96,ESE,114,3.0,3.0,60,0.00,,,0.00,Wunderground v.1.13,2013-07-24 18:43:00,
2013-07-24 13:45:00,71.7,57.5,29.96,ESE,107,3.0,5.0,61,0.00,,,0.00,Wunderground v.1.13,2013-07-24 18:45:00,
2013-07-24 13:46:00,71.8,57.2,29.96,ESE,107,3.0,5.0,60,0.00,,,0.00,Wunderground v.1.13,2013-07-24 18:46:00,
2013-07-24 13:48:00,71.9,56.8,29.96,ESE,106,3.0,3.0,59,0.00,,,0.00,Wunderground v.1.13,2013-07-24 18:48:00,
2013-07-24 13:51:00,72.3,56.7,29.95,ESE,107,1.0,3.0,58,0.00,,,0.00,Wunderground v.1.13,2013-07-24 18:51:00,
2013-07-24 13:53:00,72.6,57.4,29.95,ESE,107,1.0,3.0,59,0.00,,,0.00,Wunderground v.1.13,2013-07-24 18:53:00,
2013-07-24 13:54:00,72.8,57.2,29.95,ESE,107,2.0,3.0,58,0.00,,,0.00,Wunderground v.1.13,2013-07-24 18:54:00,
2013-07-24 13:55:00,73.0,57.3,29.95,ESE,106,2.0,3.0,58,0.00,,,0.00,Wunderground v.1.13,2013-07-24 18:55:00,
2013-07-24 13:57:00,73.3,57.1,29.95,ESE,107,1.0,1.0,57,0.00,,,0.00,Wunderground v.1.13,2013-07-24 18:57:00,
2013-07-24 13:59:00,73.5,56.8,29.95,ESE,107,1.0,1.0,56,0.00,,,0.00,Wunderground v.1.13,2013-07-24 18:59:00,
2013-07-24 14:00:00,73.7,57.0,29.95,ESE,107,1.0,1.0,56,0.00,,,0.00,Wunderground v.1.13,2013-07-24 19:00:00,
2013-07-24 14:01:00,73.9,57.2,29.95,ESE,107,1.0,1.0,56,0.00,,,0.00,Wunderground v.1.13,2013-07-24 19:01:00,
2013-07-24 14:02:00,74.1,57.4,29.95,ESE,106,1.0,1.0,56,0.00,,,0.00,Wunderground v.1.13,2013-07-24 19:02:00,
2013-07-24 14:07:00,74.6,57.4,29.95,ESE,107,0.0,0.0,55,0.00,,,0.00,Wunderground v.1.13,2013-07-24 19:07:00,
2013-07-24 14:08:00,74.6,57.4,29.95,ESE,107,0.0,1.0,55,0.00,,,0.00,Wunderground v.1.13,2013-07-24 19:08:00,
2013-07-24 14:09:00,74.7,58.0,29.95,ESE,106,0.0,1.0,56,0.00,,,0.00,Wunderground v.1.13,2013-07-24 19:09:00,
2013-07-24 14:12:00,74.8,58.1,29.95,ESE,109,1.0,6.0,56,0.00,,,0.00,Wunderground v.1.13,2013-07-24 19:12:00,
2013-07-24 14:14:00,74.3,57.6,29.95,ESE,113,2.0,7.0,56,0.00,,,0.00,Wunderground v.1.13,2013-07-24 19:14:00,
2013-07-24 14:16:00,73.5,56.3,29.95,ESE,113,3.0,7.0,55,0.00,,,0.00,Wunderground v.1.13,2013-07-24 19:16:00,
2013-07-24 14:19:00,72.6,57.0,29.95,ESE,113,4.0,5.0,58,0.00,,,0.00,Wunderground v.1.13,2013-07-24 19:19:00,
2013-07-24 14:20:00,72.5,55.9,29.95,ESE,113,4.0,5.0,56,0.00,,,0.00,Wunderground v.1.13,2013-07-24 19:20:00,
2013-07-24 14:22:00,72.3,56.2,29.95,ESE,113,3.0,3.0,57,0.00,,,0.00,Wunderground v.1.13,2013-07-24 19:22:00,
2013-07-24 14:24:00,72.2,56.1,29.95,ESE,113,3.0,5.0,57,0.00,,,0.00,Wunderground v.1.13,2013-07-24 19:24:00,
2013-07-24 14:26:00,72.1,57.0,29.95,ESE,113,3.0,6.0,59,0.00,,,0.00,Wunderground v.1.13,2013-07-24 19:26:00,
2013-07-24 14:27:00,72.1,57.4,29.94,ESE,113,3.0,6.0,60,0.00,,,0.00,Wunderground v.1.13,2013-07-24 19:27:00,
2013-07-24 14:29:00,72.0,56.4,29.95,ESE,113,3.0,6.0,58,0.00,,,0.00,Wunderground v.1.13,2013-07-24 19:29:00,
2013-07-24 14:31:00,72.0,56.9,29.94,ESE,113,3.0,6.0,59,0.00,,,0.00,Wunderground v.1.13,2013-07-24 19:31:00,
2013-07-24 14:34:00,72.4,56.3,29.94,ESE,119,4.0,5.0,57,0.00,,,0.00,Wunderground v.1.13,2013-07-24 19:34:00,
2013-07-24 14:36:00,72.5,56.9,29.94,ESE,117,4.0,5.0,58,0.00,,,0.00,Wunderground v.1.13,2013-07-24 19:36:00,
2013-07-24 14:37:00,72.4,56.8,29.94,ESE,117,4.0,4.0,58,0.00,,,0.00,Wunderground v.1.13,2013-07-24 19:37:00,
2013-07-24 14:40:00,72.5,57.4,29.94,ESE,119,3.0,8.0,59,0.00,,,0.00,Wunderground v.1.13,2013-07-24 19:40:00,
2013-07-24 14:41:00,72.6,57.4,29.94,ESE,112,4.0,8.0,59,0.00,,,0.00,Wunderground v.1.13,2013-07-24 19:41:00,
2013-07-24 14:42:00,72.6,57.4,29.94,ESE,114,4.0,4.0,59,0.00,,,0.00,Wunderground v.1.13,2013-07-24 19:42:00,
2013-07-24 14:43:00,72.6,56.5,29.94,ESE,113,4.0,5.0,57,0.00,,,0.00,Wunderground v.1.13,2013-07-24 19:43:00,
2013-07-24 14:46:00,72.7,57.1,29.94,ESE,110,4.0,5.0,58,0.00,,,0.00,Wunderground v.1.13,2013-07-24 19:46:00,
2013-07-24 14:47:00,72.7,57.1,29.94,ESE,110,4.0,4.0,58,0.00,,,0.00,Wunderground v.1.13,2013-07-24 19:47:00,
2013-07-24 14:49:00,72.7,56.6,29.94,ESE,110,5.0,5.0,57,0.00,,,0.00,Wunderground v.1.13,2013-07-24 19:49:00,
2013-07-24 14:52:00,72.4,57.3,29.94,ESE,120,4.0,5.0,59,0.00,,,0.00,Wunderground v.1.13,2013-07-24 19:52:00,
2013-07-24 14:53:00,72.2,56.6,29.94,ESE,120,4.0,5.0,58,0.00,,,0.00,Wunderground v.1.13,2013-07-24 19:53:00,
2013-07-24 14:55:00,72.1,57.4,29.94,ESE,118,3.0,6.0,60,0.00,,,0.00,Wunderground v.1.13,2013-07-24 19:55:00,
2013-07-24 14:58:00,72.1,57.0,29.94,ESE,117,4.0,5.0,59,0.00,,,0.00,Wunderground v.1.13,2013-07-24 19:58:00,
2013-07-24 14:59:00,72.2,56.6,29.94,ESE,117,4.0,5.0,58,0.00,,,0.00,Wunderground v.1.13,2013-07-24 19:59:00,
2013-07-24 15:02:00,72.3,55.7,29.94,ESE,117,3.0,4.0,56,0.00,,,0.00,Wunderground v.1.13,2013-07-24 20:02:00,
2013-07-24 15:03:00,72.2,55.6,29.94,ESE,117,3.0,4.0,56,0.00,,,0.00,Wunderground v.1.13,2013-07-24 20:03:00,
2013-07-24 15:04:00,72.2,55.6,29.94,ESE,117,3.0,4.0,56,0.00,,,0.00,Wunderground v.1.13,2013-07-24 20:04:00,
2013-07-24 15:08:00,72.4,55.8,29.94,ESE,117,2.0,3.0,56,0.00,,,0.00,Wunderground v.1.13,2013-07-24 20:08:00,
2013-07-24 15:10:00,72.6,56.5,29.93,ESE,117,1.0,3.0,57,0.00,,,0.00,Wunderground v.1.13,2013-07-24 20:10:00,
2013-07-24 15:11:00,72.7,57.1,29.93,ESE,117,1.0,1.0,58,0.00,,,0.00,Wunderground v.1.13,2013-07-24 20:11:00,
2013-07-24 15:13:00,73.0,56.9,29.93,ESE,117,1.0,1.0,57,0.00,,,0.00,Wunderground v.1.13,2013-07-24 20:13:00,
2013-07-24 15:15:00,73.5,56.3,29.93,ESE,117,1.0,4.0,55,0.00,,,0.00,Wunderground v.1.13,2013-07-24 20:15:00,
2013-07-24 15:17:00,73.8,56.6,29.93,ESE,117,1.0,5.0,55,0.00,,,0.00,Wunderground v.1.13,2013-07-24 20:17:00,
2013-07-24 15:18:00,73.7,56.5,29.93,ESE,117,1.0,5.0,55,0.00,,,0.00,Wunderground v.1.13,2013-07-24 20:18:00,
2013-07-24 15:20:00,73.7,56.0,29.93,ESE,117,2.0,5.0,54,0.00,,,0.00,Wunderground v.1.13,2013-07-24 20:20:00,
2013-07-24 15:21:00,73.8,56.6,29.93,ESE,117,1.0,5.0,55,0.00,,,0.00,Wunderground v.1.13,2013-07-24 20:21:00,
2013-07-24 15:23:00,73.7,55.5,29.93,ESE,116,2.0,6.0,53,0.00,,,0.00,Wunderground v.1.13,2013-07-24 20:23:00,
2013-07-24 15:24:00,73.7,56.5,29.93,ESE,116,3.0,6.0,55,0.00,,,0.00,Wunderground v.1.13,2013-07-24 20:24:00,
2013-07-24 15:27:00,73.2,55.6,29.93,ESE,117,3.0,3.0,54,0.00,,,0.00,Wunderground v.1.13,2013-07-24 20:27:00,
2013-07-24 15:28:00,73.2,56.1,29.93,ESE,116,3.0,4.0,55,0.00,,,0.00,Wunderground v.1.13,2013-07-24 20:28:00,
2013-07-24 15:32:00,73.1,54.9,29.93,ESE,105,3.0,4.0,53,0.00,,,0.00,Wunderground v.1.13,2013-07-24 20:32:00,
2013-07-24 15:34:00,73.1,55.5,29.93,ESE,105,3.0,4.0,54,0.00,,,0.00,Wunderground v.1.13,2013-07-24 20:34:00,
2013-07-24 15:35:00,73.2,56.1,29.93,ESE,105,2.0,4.0,55,0.00,,,0.00,Wunderground v.1.13,2013-07-24 20:35:00,
2013-07-24 15:37:00,73.2,54.5,29.93,ESE,105,2.0,4.0,52,0.00,,,0.00,Wunderground v.1.13,2013-07-24 20:37:00,
2013-07-24 15:40:00,73.3,55.6,29.93,ESE,105,2.0,6.0,54,0.00,,,0.00,Wunderground v.1.13,2013-07-24 20:40:00,
2013-07-24 15:42:00,73.4,56.2,29.93,ESE,105,2.0,2.0,55,0.00,,,0.00,Wunderground v.1.13,2013-07-24 20:42:00,
2013-07-24 15:43:00,73.5,56.3,29.93,ESE,105,2.0,5.0,55,0.00,,,0.00,Wunderground v.1.13,2013-07-24 20:43:00,
2013-07-24 15:44:00,73.5,57.3,29.93,ESE,114,2.0,7.0,57,0.00,,,0.00,Wunderground v.1.13,2013-07-24 20:44:00,
2013-07-24 15:47:00,73.2,56.6,29.93,ESE,114,3.0,3.0,56,0.00,,,0.00,Wunderground v.1.13,2013-07-24 20:47:00,
2013-07-24 15:50:00,73.1,57.0,29.92,ESE,114,2.0,3.0,57,0.00,,,0.00,Wunderground v.1.13,2013-07-24 20:50:00,
2013-07-24 15:52:00,73.0,56.9,29.92,ESE,115,3.0,4.0,57,0.00,,,0.00,Wunderground v.1.13,2013-07-24 20:52:00,
2013-07-24 15:53:00,72.9,55.3,29.92,ESE,114,3.0,4.0,54,0.00,,,0.00,Wunderground v.1.13,2013-07-24 20:53:00,
2013-07-24 15:55:00,72.8,56.2,29.92,ESE,114,2.0,4.0,56,0.00,,,0.00,Wunderground v.1.13,2013-07-24 20:55:00,
2013-07-24 15:56:00,72.8,56.7,29.92,ESE,114,2.0,2.0,57,0.00,,,0.00,Wunderground v.1.13,2013-07-24 20:56:00,
2013-07-24 15:58:00,72.9,56.8,29.92,ESE,114,2.0,2.0,57,0.00,,,0.00,Wunderground v.1.13,2013-07-24 20:58:00,
2013-07-24 16:02:00,73.1,56.0,29.92,ESE,114,1.0,1.0,55,0.00,,,0.00,Wunderground v.1.13,2013-07-24 21:02:00,
2013-07-24 16:03:00,73.2,56.1,29.92,ESE,114,1.0,1.0,55,0.00,,,0.00,Wunderground v.1.13,2013-07-24 21:03:00,
2013-07-24 16:04:00,73.2,55.6,29.92,ESE,115,0.0,1.0,54,0.00,,,0.00,Wunderground v.1.13,2013-07-24 21:04:00,
2013-07-24 16:07:00,73.1,58.4,29.92,ESE,114,1.0,3.0,60,0.00,,,0.00,Wunderground v.1.13,2013-07-24 21:07:00,
2013-07-24 16:08:00,73.1,57.9,29.92,ESE,114,2.0,3.0,59,0.00,,,0.00,Wunderground v.1.13,2013-07-24 21:08:00,
2013-07-24 16:09:00,73.1,58.8,29.92,ESE,114,2.0,3.0,61,0.00,,,0.00,Wunderground v.1.13,2013-07-24 21:09:00,
2013-07-24 16:10:00,73.1,57.9,29.92,ESE,114,2.0,3.0,59,0.00,,,0.00,Wunderground v.1.13,2013-07-24 21:10:00,
2013-07-24 16:15:00,73.0,55.9,29.92,ESE,114,2.0,2.0,55,0.00,,,0.00,Wunderground v.1.13,2013-07-24 21:15:00,
2013-07-24 16:16:00,73.0,55.9,29.92,ESE,114,2.0,2.0,55,0.00,,,0.00,Wunderground v.1.13,2013-07-24 21:16:00,
2013-07-24 16:18:00,73.0,55.9,29.92,ESE,114,1.0,2.0,55,0.00,,,0.00,Wunderground v.1.13,2013-07-24 21:18:00,
2013-07-24 16:20:00,73.1,57.0,29.92,ESE,114,1.0,5.0,57,0.00,,,0.00,Wunderground v.1.13,2013-07-24 21:20:00,
2013-07-24 16:21:00,73.1,57.0,29.92,ESE,115,1.0,5.0,57,0.00,,,0.00,Wunderground v.1.13,2013-07-24 21:21:00,
2013-07-24 16:24:00,73.0,56.4,29.92,ESE,114,2.0,5.0,56,0.00,,,0.00,Wunderground v.1.13,2013-07-24 21:24:00,
2013-07-24 16:25:00,73.0,56.4,29.92,ESE,114,3.0,5.0,56,0.00,,,0.00,Wunderground v.1.13,2013-07-24 21:25:00,
2013-07-24 16:28:00,73.1,56.5,29.92,ESE,114,3.0,3.0,56,0.00,,,0.00,Wunderground v.1.13,2013-07-24 21:28:00,
2013-07-24 16:29:00,73.2,56.6,29.92,ESE,114,3.0,4.0,56,0.00,,,0.00,Wunderground v.1.13,2013-07-24 21:29:00,
2013-07-24 16:32:00,73.3,57.1,29.92,ESE,114,3.0,5.0,57,0.00,,,0.00,Wunderground v.1.13,2013-07-24 21:32:00,
2013-07-24 16:33:00,73.3,56.7,29.92,ESE,114,3.0,5.0,56,0.00,,,0.00,Wunderground v.1.13,2013-07-24 21:33:00,
2013-07-24 16:34:00,73.3,57.1,29.92,ESE,114,3.0,5.0,57,0.00,,,0.00,Wunderground v.1.13,2013-07-24 21:34:00,
2013-07-24 16:38:00,73.2,57.5,29.92,ESE,114,3.0,3.0,58,0.00,,,0.00,Wunderground v.1.13,2013-07-24 21:38:00,
2013-07-24 16:39:00,73.2,57.5,29.92,ESE,114,3.0,5.0,58,0.00,,,0.00,Wunderground v.1.13,2013-07-24 21:39:00,
2013-07-24 16:42:00,73.1,56.0,29.92,ESE,114,4.0,4.0,55,0.00,,,0.00,Wunderground v.1.13,2013-07-24 21:42:00,
2013-07-24 16:44:00,73.2,56.6,29.91,ESE,114,3.0,4.0,56,0.00,,,0.00,Wunderground v.1.13,2013-07-24 21:44:00,
2013-07-24 16:45:00,73.1,55.5,29.91,ESE,114,3.0,4.0,54,0.00,,,0.00,Wunderground v.1.13,2013-07-24 21:45:00,
2013-07-24 16:47:00,73.2,56.1,29.91,ESE,114,2.0,2.0,55,0.00,,,0.00,Wunderground v.1.13,2013-07-24 21:47:00,
2013-07-24 16:48:00,73.2,56.6,29.91,ESE,114,2.0,2.0,56,0.00,,,0.00,Wunderground v.1.13,2013-07-24 21:48:00,
2013-07-24 16:51:00,73.3,56.7,29.91,ESE,114,1.0,2.0,56,0.00,,,0.00,Wunderground v.1.13,2013-07-24 21:51:00,
2013-07-24 16:52:00,73.4,57.2,29.91,ESE,114,1.0,2.0,57,0.00,,,0.00,Wunderground v.1.13,2013-07-24 21:52:00,
2013-07-24 16:56:00,73.6,57.9,29.91,ESE,114,1.0,7.0,58,0.00,,,0.00,Wunderground v.1.13,2013-07-24 21:56:00,
2013-07-24 16:57:00,73.5,56.8,29.91,ESE,113,2.0,2.0,56,0.00,,,0.00,Wunderground v.1.13,2013-07-24 21:57:00,
2013-07-24 16:58:00,73.5,57.3,29.91,ESE,113,2.0,3.0,57,0.00,,,0.00,Wunderground v.1.13,2013-07-24 21:58:00,
2013-07-24 16:59:00,73.4,56.2,29.91,ESE,113,3.0,6.0,55,0.00,,,0.00,Wunderground v.1.13,2013-07-24 21:59:00,
2013-07-24 17:02:00,73.4,57.7,29.91,ESE,113,4.0,4.0,58,0.00,,,0.00,Wunderground v.1.13,2013-07-24 22:02:00,
2013-07-24 17:04:00,73.3,56.7,29.91,ESE,113,4.0,4.0,56,0.00,,,0.00,Wunderground v.1.13,2013-07-24 22:04:00,
2013-07-24 17:05:00,73.3,56.2,29.91,ESE,113,3.0,4.0,55,0.00,,,0.00,Wunderground v.1.13,2013-07-24 22:05:00,
2013-07-24 17:08:00,73.3,56.2,29.91,ESE,113,2.0,2.0,55,0.00,,,0.00,Wunderground v.1.13,2013-07-24 22:08:00,
2013-07-24 17:11:00,73.5,55.8,29.91,ESE,113,1.0,2.0,54,0.00,,,0.00,Wunderground v.1.13,2013-07-24 22:11:00,
2013-07-24 17:12:00,73.6,56.9,29.91,ESE,113,0.0,0.0,56,0.00,,,0.00,Wunderground v.1.13,2013-07-24 22:12:00,
2013-07-24 17:13:00,73.6,57.9,29.91,ESE,113,0.0,0.0,58,0.00,,,0.00,Wunderground v.1.13,2013-07-24 22:13:00,
2013-07-24 17:14:00,73.7,57.5,29.91,ESE,113,0.0,0.0,57,0.00,,,0.00,Wunderground v.1.13,2013-07-24 22:14:00,
2013-07-24 17:15:00,73.7,57.0,29.91,ESE,113,0.0,0.0,56,0.00,,,0.00,Wunderground v.1.13,2013-07-24 22:15:00,
2013-07-24 17:18:00,73.7,57.0,29.91,ESE,113,0.0,0.0,56,0.00,,,0.00,Wunderground v.1.13,2013-07-24 22:18:00,
2013-07-24 17:20:00,73.8,57.1,29.91,ESE,113,0.0,0.0,56,0.00,,,0.00,Wunderground v.1.13,2013-07-24 22:20:00,
2013-07-24 17:22:00,73.8,57.6,29.90,ESE,113,0.0,0.0,57,0.00,,,0.00,Wunderground v.1.13,2013-07-24 22:22:00,
2013-07-24 17:23:00,73.9,57.7,29.90,ESE,113,0.0,1.0,57,0.00,,,0.00,Wunderground v.1.13,2013-07-24 22:23:00,
2013-07-24 17:26:00,73.9,57.7,29.91,ESE,113,0.0,4.0,57,0.00,,,0.00,Wunderground v.1.13,2013-07-24 22:26:00,
2013-07-24 17:27:00,73.9,58.7,29.91,ESE,113,0.0,1.0,59,0.00,,,0.00,Wunderground v.1.13,2013-07-24 22:27:00,
2013-07-24 17:29:00,74.1,58.9,29.91,ESE,113,0.0,1.0,59,0.00,,,0.00,Wunderground v.1.13,2013-07-24 22:29:00,
2013-07-24 17:32:00,74.2,58.9,29.91,ESE,113,1.0,1.0,59,0.00,,,0.00,Wunderground v.1.13,2013-07-24 22:32:00,
2013-07-24 17:34:00,74.2,58.5,29.91,ESE,113,1.0,1.0,58,0.00,,,0.00,Wunderground v.1.13,2013-07-24 22:34:00,
2013-07-24 17:36:00,74.3,58.1,29.91,ESE,113,1.0,1.0,57,0.00,,,0.00,Wunderground v.1.13,2013-07-24 22:36:00,
2013-07-24 17:37:00,74.4,58.2,29.91,ESE,113,1.0,1.0,57,0.00,,,0.00,Wunderground v.1.13,2013-07-24 22:37:00,
2013-07-24 17:38:00,74.4,57.7,29.91,ESE,113,1.0,1.0,56,0.00,,,0.00,Wunderground v.1.13,2013-07-24 22:38:00,
2013-07-24 17:40:00,74.5,57.3,29.90,ESE,113,1.0,1.0,55,0.00,,,0.00,Wunderground v.1.13,2013-07-24 22:40:00,
2013-07-24 17:42:00,74.6,56.9,29.90,ESE,113,0.0,4.0,54,0.00,,,0.00,Wunderground v.1.13,2013-07-24 22:42:00,
2013-07-24 17:43:00,74.6,56.3,29.90,ESE,113,1.0,4.0,53,0.00,,,0.00,Wunderground v.1.13,2013-07-24 22:43:00,
2013-07-24 17:48:00,74.4,56.2,29.91,ESE,113,2.0,5.0,53,0.00,,,0.00,Wunderground v.1.13,2013-07-24 22:48:00,
2013-07-24 17:49:00,74.4,56.2,29.91,ESE,113,2.0,5.0,53,0.00,,,0.00,Wunderground v.1.13,2013-07-24 22:49:00,
2013-07-24 17:54:00,74.3,56.1,29.91,ESE,113,2.0,4.0,53,0.00,,,0.00,Wunderground v.1.13,2013-07-24 22:54:00,
2013-07-24 17:56:00,74.3,56.6,29.91,ESE,113,2.0,4.0,54,0.00,,,0.00,Wunderground v.1.13,2013-07-24 22:56:00,
2013-07-24 17:58:00,74.3,57.1,29.90,ESE,113,2.0,5.0,55,0.00,,,0.00,Wunderground v.1.13,2013-07-24 22:58:00,
2013-07-24 18:01:00,74.3,58.1,29.90,ESE,113,2.0,6.0,57,0.00,,,0.00,Wunderground v.1.13,2013-07-24 23:01:00,
2013-07-24 18:03:00,74.0,57.8,29.90,ESE,121,3.0,5.0,57,0.00,,,0.00,Wunderground v.1.13,2013-07-24 23:03:00,
2013-07-24 18:06:00,73.9,58.2,29.90,ESE,121,4.0,5.0,58,0.00,,,0.00,Wunderground v.1.13,2013-07-24 23:06:00,
2013-07-24 18:08:00,73.9,58.7,29.90,ESE,119,4.0,5.0,59,0.00,,,0.00,Wunderground v.1.13,2013-07-24 23:08:00,
2013-07-24 18:09:00,73.9,57.7,29.90,ESE,119,4.0,5.0,57,0.00,,,0.00,Wunderground v.1.13,2013-07-24 23:09:00,
2013-07-24 18:10:00,73.9,58.2,29.90,ESE,117,4.0,5.0,58,0.00,,,0.00,Wunderground v.1.13,2013-07-24 23:10:00,
2013-07-24 18:12:00,74.0,57.8,29.90,ESE,117,3.0,4.0,57,0.00,,,0.00,Wunderground v.1.13,2013-07-24 23:12:00,
2013-07-24 18:13:00,73.9,56.7,29.90,ESE,117,3.0,5.0,55,0.00,,,0.00,Wunderground v.1.13,2013-07-24 23:13:00,
2013-07-24 18:17:00,73.7,57.0,29.90,ESE,117,3.0,3.0,56,0.00,,,0.00,Wunderground v.1.13,2013-07-24 23:17:00,
2013-07-24 18:18:00,73.7,57.0,29.90,ESE,117,3.0,3.0,56,0.00,,,0.00,Wunderground v.1.13,2013-07-24 23:18:00,
2013-07-24 18:19:00,73.6,57.4,29.90,ESE,117,3.0,3.0,57,0.00,,,0.00,Wunderground v.1.13,2013-07-24 23:19:00,
2013-07-24 18:20:00,73.6,56.9,29.90,ESE,117,3.0,5.0,56,0.00,,,0.00,Wunderground v.1.13,2013-07-24 23:20:00,
2013-07-24 18:24:00,73.5,57.3,29.90,ESE,117,2.0,4.0,57,0.00,,,0.00,Wunderground v.1.13,2013-07-24 23:24:00,
2013-07-24 18:27:00,73.4,56.7,29.89,ESE,117,2.0,2.0,56,0.00,,,0.00,Wunderground v.1.13,2013-07-24 23:27:00,
2013-07-24 18:31:00,73.4,58.2,29.90,ESE,117,2.0,2.0,59,0.00,,,0.00,Wunderground v.1.13,2013-07-24 23:31:00,
2013-07-24 18:35:00,73.5,57.8,29.89,ESE,117,1.0,2.0,58,0.00,,,0.00,Wunderground v.1.13,2013-07-24 23:35:00,
2013-07-24 18:37:00,73.6,57.9,29.89,ESE,117,0.0,0.0,58,0.00,,,0.00,Wunderground v.1.13,2013-07-24 23:37:00,
2013-07-24 18:39:00,73.7,58.0,29.89,ESE,117,0.0,0.0,58,0.00,,,0.00,Wunderground v.1.13,2013-07-24 23:39:00,
2013-07-24 18:41:00,73.9,58.2,29.89,ESE,117,0.0,0.0,58,0.00,,,0.00,Wunderground v.1.13,2013-07-24 23:41:00,
2013-07-24 18:42:00,74.1,57.9,29.90,ESE,117,0.0,3.0,57,0.00,,,0.00,Wunderground v.1.13,2013-07-24 23:42:00,
2013-07-24 18:43:00,74.1,58.4,29.89,ESE,117,0.0,3.0,58,0.00,,,0.00,Wunderground v.1.13,2013-07-24 23:43:00,
2013-07-24 18:44:00,74.1,58.4,29.90,ESE,117,0.0,3.0,58,0.00,,,0.00,Wunderground v.1.13,2013-07-24 23:44:00,
2013-07-24 18:46:00,74.3,57.6,29.90,ESE,117,0.0,0.0,56,0.00,,,0.00,Wunderground v.1.13,2013-07-24 23:46:00,
2013-07-24 18:49:00,74.6,57.9,29.89,SW,225,0.0,3.0,56,0.00,,,0.00,Wunderground v.1.13,2013-07-24 23:49:00,
2013-07-24 18:52:00,74.7,57.5,29.89,SW,223,1.0,1.0,55,0.00,,,0.00,Wunderground v.1.13,2013-07-24 23:52:00,
2013-07-24 18:53:00,74.7,57.5,29.89,SW,223,0.0,1.0,55,0.00,,,0.00,Wunderground v.1.13,2013-07-24 23:53:00,
2013-07-24 18:57:00,74.8,57.5,29.89,SW,223,0.0,0.0,55,0.00,,,0.00,Wunderground v.1.13,2013-07-24 23:57:00,
2013-07-24 18:59:00,74.9,57.1,29.89,SW,223,0.0,0.0,54,0.00,,,0.00,Wunderground v.1.13,2013-07-24 23:59:00,
2013-07-24 19:02:00,75.0,57.2,29.89,SW,223,0.0,1.0,54,0.00,,,0.00,Wunderground v.1.13,2013-07-25 00:02:00,
2013-07-24 19:04:00,75.1,57.3,29.89,SW,223,0.0,1.0,54,0.00,,,0.00,Wunderground v.1.13,2013-07-25 00:04:00,
2013-07-24 19:05:00,75.2,57.4,29.89,SW,223,0.0,1.0,54,0.00,,,0.00,Wunderground v.1.13,2013-07-25 00:05:00,
2013-07-24 19:07:00,75.2,56.9,29.88,SW,223,0.0,0.0,53,0.00,,,0.00,Wunderground v.1.13,2013-07-25 00:07:00,
2013-07-24 19:08:00,75.2,57.4,29.89,SW,223,0.0,0.0,54,0.00,,,0.00,Wunderground v.1.13,2013-07-25 00:08:00,
2013-07-24 19:13:00,75.3,58.5,29.88,South,188,0.0,0.0,56,0.00,,,0.00,Wunderground v.1.13,2013-07-25 00:13:00,
2013-07-24 19:14:00,75.4,58.6,29.88,South,188,0.0,1.0,56,0.00,,,0.00,Wunderground v.1.13,2013-07-25 00:14:00,
2013-07-24 19:15:00,75.3,58.0,29.88,South,188,0.0,1.0,55,0.00,,,0.00,Wunderground v.1.13,2013-07-25 00:15:00,
2013-07-24 19:18:00,75.3,58.5,29.88,South,188,0.0,1.0,56,0.00,,,0.00,Wunderground v.1.13,2013-07-25 00:18:00,
2013-07-24 19:19:00,75.3,58.5,29.88,South,188,0.0,1.0,56,0.00,,,0.00,Wunderground v.1.13,2013-07-25 00:19:00,
2013-07-24 19:21:00,75.4,58.6,29.88,South,188,0.0,1.0,56,0.00,,,0.00,Wunderground v.1.13,2013-07-25 00:21:00,
2013-07-24 19:22:00,75.4,58.1,29.88,South,188,0.0,0.0,55,0.00,,,0.00,Wunderground v.1.13,2013-07-25 00:22:00,
2013-07-24 19:24:00,75.4,58.6,29.88,South,188,0.0,5.0,56,0.00,,,0.00,Wunderground v.1.13,2013-07-25 00:24:00,
2013-07-24 19:25:00,75.4,58.6,29.88,South,188,0.0,5.0,56,0.00,,,0.00,Wunderground v.1.13,2013-07-25 00:25:00,
2013-07-24 19:26:00,75.4,58.6,29.88,South,188,0.0,5.0,56,0.00,,,0.00,Wunderground v.1.13,2013-07-25 00:26:00,
2013-07-24 19:28:00,75.5,59.2,29.88,South,188,0.0,0.0,57,0.00,,,0.00,Wunderground v.1.13,2013-07-25 00:28:00,
2013-07-24 19:33:00,75.8,59.0,29.88,South,188,0.0,0.0,56,0.00,,,0.00,Wunderground v.1.13,2013-07-25 00:33:00,
2013-07-24 19:35:00,75.8,58.5,29.88,South,188,0.0,0.0,55,0.00,,,0.00,Wunderground v.1.13,2013-07-25 00:35:00,
2013-07-24 19:38:00,75.8,59.0,29.88,South,188,0.0,0.0,56,0.00,,,0.00,Wunderground v.1.13,2013-07-25 00:38:00,
2013-07-24 19:39:00,75.9,59.1,29.88,South,188,0.0,0.0,56,0.00,,,0.00,Wunderground v.1.13,2013-07-25 00:39:00,
2013-07-24 19:41:00,75.9,58.1,29.88,South,188,0.0,0.0,54,0.00,,,0.00,Wunderground v.1.13,2013-07-25 00:41:00,
2013-07-24 19:42:00,76.0,58.2,29.88,South,188,0.0,0.0,54,0.00,,,0.00,Wunderground v.1.13,2013-07-25 00:42:00,
2013-07-24 19:44:00,75.9,58.6,29.88,South,188,0.0,0.0,55,0.00,,,0.00,Wunderground v.1.13,2013-07-25 00:44:00,
2013-07-24 19:48:00,75.8,59.0,29.88,South,188,0.0,0.0,56,0.00,,,0.00,Wunderground v.1.13,2013-07-25 00:48:00,
2013-07-24 19:49:00,75.8,59.0,29.88,South,188,0.0,0.0,56,0.00,,,0.00,Wunderground v.1.13,2013-07-25 00:49:00,
2013-07-24 19:50:00,75.8,59.0,29.88,South,188,0.0,0.0,56,0.00,,,0.00,Wunderground v.1.13,2013-07-25 00:50:00,
2013-07-24 19:54:00,75.4,58.6,29.88,South,188,0.0,0.0,56,0.00,,,0.00,Wunderground v.1.13,2013-07-25 00:54:00,
2013-07-24 19:55:00,75.3,58.5,29.88,South,188,0.0,0.0,56,0.00,,,0.00,Wunderground v.1.13,2013-07-25 00:55:00,
2013-07-24 19:56:00,75.3,58.5,29.88,South,188,0.0,0.0,56,0.00,,,0.00,Wunderground v.1.13,2013-07-25 00:56:00,
2013-07-24 19:58:00,75.2,58.9,29.88,South,188,0.0,0.0,57,0.00,,,0.00,Wunderground v.1.13,2013-07-25 00:58:00,
2013-07-24 20:01:00,75.0,58.7,29.88,South,188,0.0,0.0,57,0.00,,,0.00,Wunderground v.1.13,2013-07-25 01:01:00,
2013-07-24 20:04:00,74.8,58.5,29.87,South,188,0.0,0.0,57,0.00,,,0.00,Wunderground v.1.13,2013-07-25 01:04:00,
2013-07-24 20:05:00,74.8,58.5,29.87,South,188,0.0,0.0,57,0.00,,,0.00,Wunderground v.1.13,2013-07-25 01:05:00,
2013-07-24 20:06:00,74.8,58.5,29.87,South,188,0.0,0.0,57,0.00,,,0.00,Wunderground v.1.13,2013-07-25 01:06:00,
2013-07-24 20:08:00,74.6,58.8,29.87,South,188,0.0,0.0,58,0.00,,,0.00,Wunderground v.1.13,2013-07-25 01:08:00,
2013-07-24 20:09:00,74.6,59.3,29.87,South,188,0.0,0.0,59,0.00,,,0.00,Wunderground v.1.13,2013-07-25 01:09:00,
2013-07-24 20:10:00,74.5,59.2,29.87,South,188,0.0,0.0,59,0.00,,,0.00,Wunderground v.1.13,2013-07-25 01:10:00,
2013-07-24 20:13:00,74.3,59.5,29.87,South,188,0.0,0.0,60,0.00,,,0.00,Wunderground v.1.13,2013-07-25 01:13:00,
2013-07-24 20:14:00,74.2,59.4,29.87,South,188,0.0,0.0,60,0.00,,,0.00,Wunderground v.1.13,2013-07-25 01:14:00,
2013-07-24 20:15:00,74.2,59.4,29.87,South,188,0.0,0.0,60,0.00,,,0.00,Wunderground v.1.13,2013-07-25 01:15:00,
2013-07-24 20:17:00,74.0,59.7,29.87,South,188,0.0,0.0,61,0.00,,,0.00,Wunderground v.1.13,2013-07-25 01:17:00,
2013-07-24 20:20:00,73.5,59.2,29.87,South,188,0.0,0.0,61,0.00,,,0.00,Wunderground v.1.13,2013-07-25 01:20:00,
2013-07-24 20:21:00,73.4,59.6,29.87,South,188,0.0,0.0,62,0.00,,,0.00,Wunderground v.1.13,2013-07-25 01:21:00,
2013-07-24 20:22:00,73.3,59.5,29.87,South,188,0.0,0.0,62,0.00,,,0.00,Wunderground v.1.13,2013-07-25 01:22:00,
2013-07-24 20:23:00,73.2,59.4,29.87,South,188,0.0,0.0,62,0.00,,,0.00,Wunderground v.1.13,2013-07-25 01:23:00,
2013-07-24 20:27:00,72.5,59.2,29.87,South,188,0.0,0.0,63,0.00,,,0.00,Wunderground v.1.13,2013-07-25 01:27:00,
2013-07-24 20:28:00,72.4,59.1,29.87,South,188,0.0,0.0,63,0.00,,,0.00,Wunderground v.1.13,2013-07-25 01:28:00,
2013-07-24 20:29:00,72.3,59.4,29.87,South,188,0.0,0.0,64,0.00,,,0.00,Wunderground v.1.13,2013-07-25 01:29:00,
2013-07-24 20:32:00,71.7,58.9,29.87,South,188,0.0,0.0,64,0.00,,,0.00,Wunderground v.1.13,2013-07-25 01:32:00,
2013-07-24 20:33:00,71.7,58.9,29.87,South,188,0.0,0.0,64,0.00,,,0.00,Wunderground v.1.13,2013-07-25 01:33:00,
2013-07-24 20:36:00,71.2,58.8,29.87,South,188,0.0,0.0,65,0.00,,,0.00,Wunderground v.1.13,2013-07-25 01:36:00,
2013-07-24 20:37:00,71.1,58.7,29.87,South,188,0.0,0.0,65,0.00,,,0.00,Wunderground v.1.13,2013-07-25 01:37:00,
2013-07-24 20:38:00,71.0,58.6,29.87,South,188,0.0,0.0,65,0.00,,,0.00,Wunderground v.1.13,2013-07-25 01:38:00,
2013-07-24 20:40:00,70.8,58.4,29.87,South,188,0.0,0.0,65,0.00,,,0.00,Wunderground v.1.13,2013-07-25 01:40:00,
2013-07-24 20:42:00,70.6,58.3,29.87,South,188,0.0,0.0,65,0.00,,,0.00,Wunderground v.1.13,2013-07-25 01:42:00,
2013-07-24 20:44:00,70.4,58.5,29.88,South,188,0.0,0.0,66,0.00,,,0.00,Wunderground v.1.13,2013-07-25 01:44:00,
2013-07-24 20:46:00,70.2,58.3,29.88,South,188,0.0,0.0,66,0.00,,,0.00,Wunderground v.1.13,2013-07-25 01:46:00,
2013-07-24 20:50:00,69.9,58.4,29.88,South,188,0.0,0.0,67,0.00,,,0.00,Wunderground v.1.13,2013-07-25 01:50:00,
2013-07-24 20:51:00,69.8,58.8,29.88,South,188,0.0,0.0,68,0.00,,,0.00,Wunderground v.1.13,2013-07-25 01:51:00,
2013-07-24 20:52:00,69.7,58.7,29.88,South,188,0.0,0.0,68,0.00,,,0.00,Wunderground v.1.13,2013-07-25 01:52:00,
2013-07-24 20:53:00,69.6,58.6,29.88,South,188,0.0,0.0,68,0.00,,,0.00,Wunderground v.1.13,2013-07-25 01:53:00,
2013-07-24 20:56:00,69.3,58.3,29.88,South,188,0.0,0.0,68,0.00,,,0.00,Wunderground v.1.13,2013-07-25 01:56:00,
2013-07-24 20:58:00,69.1,58.5,29.88,South,188,0.0,1.0,69,0.00,,,0.00,Wunderground v.1.13,2013-07-25 01:58:00,
2013-07-24 20:59:00,69.0,58.4,29.88,South,188,0.0,1.0,69,0.00,,,0.00,Wunderground v.1.13,2013-07-25 01:59:00,
2013-07-24 21:02:00,68.8,58.6,29.88,South,188,0.0,0.0,70,0.00,,,0.00,Wunderground v.1.13,2013-07-25 02:02:00,
2013-07-24 21:03:00,68.7,58.5,29.88,South,188,0.0,0.0,70,0.00,,,0.00,Wunderground v.1.13,2013-07-25 02:03:00,
2013-07-24 21:04:00,68.6,58.4,29.88,South,188,0.0,2.0,70,0.00,,,0.00,Wunderground v.1.13,2013-07-25 02:04:00,
2013-07-24 21:08:00,68.3,58.5,29.88,South,188,0.0,2.0,71,0.00,,,0.00,Wunderground v.1.13,2013-07-25 02:08:00,
2013-07-24 21:09:00,68.3,58.5,29.88,South,188,0.0,2.0,71,0.00,,,0.00,Wunderground v.1.13,2013-07-25 02:09:00,
2013-07-24 21:11:00,68.2,58.4,29.88,South,188,0.0,2.0,71,0.00,,,0.00,Wunderground v.1.13,2013-07-25 02:11:00,
2013-07-24 21:15:00,68.1,58.3,29.88,South,188,1.0,1.0,71,0.00,,,0.00,Wunderground v.1.13,2013-07-25 02:15:00,
2013-07-24 21:19:00,68.0,58.2,29.88,South,188,1.0,2.0,71,0.00,,,0.00,Wunderground v.1.13,2013-07-25 02:19:00,
2013-07-24 21:21:00,67.9,58.1,29.88,South,188,1.0,1.0,71,0.00,,,0.00,Wunderground v.1.13,2013-07-25 02:21:00,
2013-07-24 21:24:00,67.8,58.1,29.88,South,188,0.0,1.0,71,0.00,,,0.00,Wunderground v.1.13,2013-07-25 02:24:00,
2013-07-24 21:25:00,67.8,58.1,29.88,South,188,0.0,1.0,71,0.00,,,0.00,Wunderground v.1.13,2013-07-25 02:25:00,
2013-07-24 21:27:00,67.7,58.3,29.88,South,188,0.0,0.0,72,0.00,,,0.00,Wunderground v.1.13,2013-07-25 02:27:00,
2013-07-24 21:28:00,67.6,58.2,29.88,South,188,0.0,0.0,72,0.00,,,0.00,Wunderground v.1.13,2013-07-25 02:28:00,
2013-07-24 21:31:00,67.5,58.2,29.88,South,188,0.0,0.0,72,0.00,,,0.00,Wunderground v.1.13,2013-07-25 02:31:00,
2013-07-24 21:32:00,67.5,58.2,29.89,South,188,0.0,0.0,72,0.00,,,0.00,Wunderground v.1.13,2013-07-25 02:32:00,
2013-07-24 21:35:00,67.4,58.1,29.89,South,188,0.0,1.0,72,0.00,,,0.00,Wunderground v.1.13,2013-07-25 02:35:00,
2013-07-24 21:37:00,67.3,58.0,29.89,South,188,0.0,0.0,72,0.00,,,0.00,Wunderground v.1.13,2013-07-25 02:37:00,
2013-07-24 21:39:00,67.3,58.3,29.89,South,188,0.0,0.0,73,0.00,,,0.00,Wunderground v.1.13,2013-07-25 02:39:00,
2013-07-24 21:41:00,67.2,57.9,29.89,South,188,0.0,0.0,72,0.00,,,0.00,Wunderground v.1.13,2013-07-25 02:41:00,
2013-07-24 21:44:00,67.1,58.2,29.88,South,188,0.0,0.0,73,0.00,,,0.00,Wunderground v.1.13,2013-07-25 02:44:00,
2013-07-24 21:46:00,67.0,58.1,29.88,South,188,0.0,0.0,73,0.00,,,0.00,Wunderground v.1.13,2013-07-25 02:46:00,
2013-07-24 21:48:00,67.0,58.1,29.89,South,188,0.0,0.0,73,0.00,,,0.00,Wunderground v.1.13,2013-07-25 02:48:00,
2013-07-24 21:50:00,66.9,58.0,29.88,South,188,0.0,0.0,73,0.00,,,0.00,Wunderground v.1.13,2013-07-25 02:50:00,
2013-07-24 21:53:00,66.8,58.2,29.89,South,188,0.0,0.0,74,0.00,,,0.00,Wunderground v.1.13,2013-07-25 02:53:00,
2013-07-24 21:54:00,66.7,58.1,29.89,South,188,0.0,0.0,74,0.00,,,0.00,Wunderground v.1.13,2013-07-25 02:54:00,
2013-07-24 21:59:00,66.6,58.1,29.89,South,188,0.0,2.0,74,0.00,,,0.00,Wunderground v.1.13,2013-07-25 02:59:00,
2013-07-24 22:00:00,66.5,58.0,29.89,South,188,0.0,5.0,74,0.00,,,0.00,Wunderground v.1.13,2013-07-25 03:00:00,
2013-07-24 22:01:00,66.5,58.0,29.89,South,188,0.0,2.0,74,0.00,,,0.00,Wunderground v.1.13,2013-07-25 03:01:00,
2013-07-24 22:02:00,66.5,58.0,29.88,South,188,1.0,2.0,74,0.00,,,0.00,Wunderground v.1.13,2013-07-25 03:02:00,
2013-07-24 22:05:00,66.5,58.0,29.88,South,188,1.0,2.0,74,0.00,,,0.00,Wunderground v.1.13,2013-07-25 03:05:00,
2013-07-24 22:08:00,66.5,58.0,29.89,South,188,1.0,1.0,74,0.00,,,0.00,Wunderground v.1.13,2013-07-25 03:08:00,
2013-07-24 22:12:00,66.5,58.0,29.89,South,188,1.0,1.0,74,0.00,,,0.00,Wunderground v.1.13,2013-07-25 03:12:00,
2013-07-24 22:16:00,66.5,58.0,29.89,South,188,0.0,1.0,74,0.00,,,0.00,Wunderground v.1.13,2013-07-25 03:16:00,
2013-07-24 22:18:00,66.5,58.0,29.89,South,188,0.0,1.0,74,0.00,,,0.00,Wunderground v.1.13,2013-07-25 03:18:00,
2013-07-24 22:20:00,66.4,57.9,29.89,South,188,0.0,1.0,74,0.00,,,0.00,Wunderground v.1.13,2013-07-25 03:20:00,
2013-07-24 22:22:00,66.4,57.9,29.89,South,188,0.0,0.0,74,0.00,,,0.00,Wunderground v.1.13,2013-07-25 03:22:00,
2013-07-24 22:26:00,66.3,57.8,29.89,South,188,0.0,1.0,74,0.00,,,0.00,Wunderground v.1.13,2013-07-25 03:26:00,
2013-07-24 22:28:00,66.3,57.8,29.88,South,188,0.0,0.0,74,0.00,,,0.00,Wunderground v.1.13,2013-07-25 03:28:00,
2013-07-24 22:30:00,66.4,58.6,29.88,South,175,1.0,4.0,76,0.00,,,0.00,Wunderground v.1.13,2013-07-25 03:30:00,
2013-07-24 22:34:00,66.4,58.6,29.88,SE,132,1.0,1.0,76,0.00,,,0.00,Wunderground v.1.13,2013-07-25 03:34:00,
2013-07-24 22:35:00,66.4,58.6,29.88,SE,132,1.0,1.0,76,0.00,,,0.00,Wunderground v.1.13,2013-07-25 03:35:00,
2013-07-24 22:36:00,66.4,58.6,29.88,SE,132,1.0,1.0,76,0.00,,,0.00,Wunderground v.1.13,2013-07-25 03:36:00,
2013-07-24 22:41:00,66.3,58.1,29.89,SE,125,1.0,5.0,75,0.00,,,0.00,Wunderground v.1.13,2013-07-25 03:41:00,
2013-07-24 22:42:00,66.3,58.1,29.89,SE,125,1.0,1.0,75,0.00,,,0.00,Wunderground v.1.13,2013-07-25 03:42:00,
2013-07-24 22:46:00,66.3,58.5,29.88,SE,125,1.0,2.0,76,0.00,,,0.00,Wunderground v.1.13,2013-07-25 03:46:00,
2013-07-24 22:48:00,66.4,59.3,29.88,ESE,122,1.0,5.0,78,0.00,,,0.00,Wunderground v.1.13,2013-07-25 03:48:00,
2013-07-24 22:53:00,66.5,59.4,29.88,ESE,121,3.0,4.0,78,0.00,,,0.00,Wunderground v.1.13,2013-07-25 03:53:00,
2013-07-24 22:54:00,66.5,59.4,29.88,ESE,121,3.0,4.0,78,0.00,,,0.00,Wunderground v.1.13,2013-07-25 03:54:00,
2013-07-24 22:55:00,66.5,59.4,29.88,ESE,121,4.0,4.0,78,0.00,,,0.00,Wunderground v.1.13,2013-07-25 03:55:00,
2013-07-24 22:59:00,66.4,59.3,29.88,ESE,121,4.0,5.0,78,0.00,,,0.00,Wunderground v.1.13,2013-07-25 03:59:00,
2013-07-24 23:01:00,66.3,58.9,29.88,ESE,119,3.0,5.0,77,0.00,,,0.00,Wunderground v.1.13,2013-07-25 04:01:00,
2013-07-24 23:02:00,66.3,59.2,29.88,ESE,119,3.0,4.0,78,0.00,,,0.00,Wunderground v.1.13,2013-07-25 04:02:00,
2013-07-24 23:03:00,66.4,59.7,29.88,ESE,119,3.0,4.0,79,0.00,,,0.00,Wunderground v.1.13,2013-07-25 04:03:00,
2013-07-24 23:04:00,66.3,59.2,29.88,ESE,118,3.0,4.0,78,0.00,,,0.00,Wunderground v.1.13,2013-07-25 04:04:00,
2013-07-24 23:07:00,66.3,58.9,29.88,ENE,75,2.0,2.0,77,0.00,,,0.00,Wunderground v.1.13,2013-07-25 04:07:00,
2013-07-24 23:08:00,66.2,58.8,29.88,East,92,2.0,2.0,77,0.00,,,0.00,Wunderground v.1.13,2013-07-25 04:08:00,
2013-07-24 23:10:00,66.2,58.8,29.88,ENE,61,2.0,2.0,77,0.00,,,0.00,Wunderground v.1.13,2013-07-25 04:10:00,
2013-07-24 23:12:00,66.2,58.8,29.88,ENE,62,1.0,1.0,77,0.00,,,0.00,Wunderground v.1.13,2013-07-25 04:12:00,
2013-07-24 23:13:00,66.1,58.7,29.88,NE,55,1.0,4.0,77,0.00,,,0.00,Wunderground v.1.13,2013-07-25 04:13:00,
2013-07-24 23:14:00,66.1,58.7,29.88,SSW,213,1.0,4.0,77,0.00,,,0.00,Wunderground v.1.13,2013-07-25 04:14:00,
2013-07-24 23:17:00,66.0,58.2,29.88,WSW,241,1.0,1.0,76,0.00,,,0.00,Wunderground v.1.13,2013-07-25 04:17:00,
2013-07-24 23:18:00,66.0,58.2,29.88,SSW,209,1.0,1.0,76,0.00,,,0.00,Wunderground v.1.13,2013-07-25 04:18:00,
2013-07-24 23:19:00,66.0,58.2,29.88,SSE,150,1.0,1.0,76,0.00,,,0.00,Wunderground v.1.13,2013-07-25 04:19:00,
2013-07-24 23:21:00,66.0,58.2,29.88,SW,218,1.0,1.0,76,0.00,,,0.00,Wunderground v.1.13,2013-07-25 04:21:00,
2013-07-24 23:28:00,66.1,58.3,29.88,SW,215,1.0,1.0,76,0.00,,,0.00,Wunderground v.1.13,2013-07-25 04:28:00,
2013-07-24 23:29:00,66.1,58.3,29.88,SW,215,1.0,1.0,76,0.00,,,0.00,Wunderground v.1.13,2013-07-25 04:29:00,
2013-07-24 23:30:00,66.1,58.3,29.88,SW,216,1.0,2.0,76,0.00,,,0.00,Wunderground v.1.13,2013-07-25 04:30:00,
2013-07-24 23:34:00,66.1,57.9,29.88,SSW,198,1.0,3.0,75,0.00,,,0.00,Wunderground v.1.13,2013-07-25 04:34:00,
2013-07-24 23:35:00,66.1,57.9,29.88,SSW,198,1.0,3.0,75,0.00,,,0.00,Wunderground v.1.13,2013-07-25 04:35:00,
2013-07-24 23:36:00,66.1,57.9,29.88,SSW,198,1.0,3.0,75,0.00,,,0.00,Wunderground v.1.13,2013-07-25 04:36:00,
2013-07-24 23:40:00,66.1,58.3,29.88,SSW,198,1.0,1.0,76,0.00,,,0.00,Wunderground v.1.13,2013-07-25 04:40:00,
2013-07-24 23:41:00,66.1,58.3,29.88,SSW,198,1.0,1.0,76,0.00,,,0.00,Wunderground v.1.13,2013-07-25 04:41:00,
2013-07-24 23:42:00,66.1,58.3,29.88,SSW,198,1.0,1.0,76,0.00,,,0.00,Wunderground v.1.13,2013-07-25 04:42:00,
2013-07-24 23:43:00,66.0,58.2,29.88,SSW,198,1.0,1.0,76,0.00,,,0.00,Wunderground v.1.13,2013-07-25 04:43:00,
2013-07-24 23:48:00,66.0,58.2,29.88,South,184,0.0,2.0,76,0.00,,,0.00,Wunderground v.1.13,2013-07-25 04:48:00,
2013-07-24 23:49:00,66.0,58.2,29.88,South,184,0.0,2.0,76,0.00,,,0.00,Wunderground v.1.13,2013-07-25 04:49:00,
2013-07-24 23:52:00,66.1,58.3,29.88,South,184,0.0,0.0,76,0.00,,,0.00,Wunderground v.1.13,2013-07-25 04:52:00,
2013-07-24 23:55:00,66.1,58.3,29.88,South,184,0.0,1.0,76,0.00,,,0.00,Wunderground v.1.13,2013-07-25 04:55:00,
2013-07-24 23:57:00,66.1,58.3,29.88,South,184,0.0,0.0,76,0.00,,,0.00,Wunderground v.1.13,2013-07-25 04:57:00,
2013-07-24 23:58:00,66.1,58.3,29.88,South,184,0.0,0.0,76,0.00,,,0.00,Wunderground v.1.13,2013-07-25 04:58:00,